Time,TemperatureF,DewpointF,PressureIn,WindDirection,WindDirectionDegrees,WindSpeedMPH,WindSpeedGustMPH,Humidity,HourlyPrecipIn,Conditions,Clouds,dailyrainin,SoftwareType,DateUTC
2013-03-22 00:00:00,29.7,6.0,30.15,North,356,0.0,0.0,36,-99.99,,CLR,-99.99,VWS V14.01,2013-03-22 04:00:00,
2013-03-22 00:01:00,29.7,5.4,30.15,North,356,0.0,0.0,35,-99.99,,CLR,-99.99,VWS V14.01,2013-03-22 04:01:00,
2013-03-22 00:02:00,29.7,5.4,30.15,North,356,0.0,0.0,35,-99.99,,CLR,-99.99,VWS V14.01,2013-03-22 04:02:00,
2013-03-22 00:05:00,29.5,5.2,30.15,North,356,0.0,3.6,35,-99.99,,CLR,-99.99,VWS V14.01,2013-03-22 04:05:00,
2013-03-22 00:07:00,29.5,5.2,30.15,North,356,0.0,3.1,35,-99.99,,CLR,-99.99,VWS V14.01,2013-03-22 04:07:00,
2013-03-22 00:09:00,29.5,5.2,30.15,North,356,0.0,2.7,35,-99.99,,CLR,-99.99,VWS V14.01,2013-03-22 04:09:00,
2013-03-22 00:11:00,29.3,5.7,30.15,North,356,3.1,3.1,36,-99.99,,CLR,-99.99,VWS V14.01,2013-03-22 04:11:00,
2013-03-22 00:12:00,29.1,5.5,30.15,North,356,2.7,2.7,36,-99.99,,CLR,-99.99,VWS V14.01,2013-03-22 04:12:00,
2013-03-22 00:13:00,29.1,5.5,30.15,North,356,0.0,2.7,36,-99.99,,CLR,-99.99,VWS V14.01,2013-03-22 04:13:00,
2013-03-22 00:17:00,28.8,5.2,30.15,North,356,4.9,5.4,36,-99.99,,CLR,-99.99,VWS V14.01,2013-03-22 04:17:00,
2013-03-22 00:18:00,28.8,5.2,30.15,North,356,3.6,4.9,36,-99.99,,CLR,-99.99,VWS V14.01,2013-03-22 04:18:00,
2013-03-22 00:22:00,28.6,5.6,30.15,North,356,4.5,4.9,37,-99.99,,CLR,-99.99,VWS V14.01,2013-03-22 04:22:00,
2013-03-22 00:23:00,28.6,5.6,30.15,North,356,2.7,2.7,37,-99.99,,CLR,-99.99,VWS V14.01,2013-03-22 04:23:00,
2013-03-22 00:24:00,28.6,5.6,30.15,North,356,0.0,0.0,37,-99.99,,CLR,-99.99,VWS V14.01,2013-03-22 04:24:00,
2013-03-22 00:28:00,28.6,5.6,30.15,North,356,2.7,3.1,37,-99.99,,CLR,-99.99,VWS V14.01,2013-03-22 04:28:00,
2013-03-22 00:29:00,28.6,5.6,30.15,North,356,0.0,0.0,37,-99.99,,CLR,-99.99,VWS V14.01,2013-03-22 04:29:00,
2013-03-22 00:33:00,28.4,5.5,30.15,North,356,0.0,0.0,37,-99.99,,CLR,-99.99,VWS V14.01,2013-03-22 04:33:00,
2013-03-22 00:34:00,28.2,5.9,30.15,North,356,0.0,2.7,38,-99.99,,CLR,-99.99,VWS V14.01,2013-03-22 04:34:00,
2013-03-22 00:35:00,28.2,5.9,30.15,North,356,0.0,2.7,38,-99.99,,CLR,-99.99,VWS V14.01,2013-03-22 04:35:00,
2013-03-22 00:39:00,28.0,5.7,30.18,North,356,0.0,0.0,38,-99.99,,CLR,-99.99,VWS V14.01,2013-03-22 04:39:00,
2013-03-22 00:40:00,28.0,5.7,30.18,North,356,0.0,0.0,38,-99.99,,CLR,-99.99,VWS V14.01,2013-03-22 04:40:00,
2013-03-22 00:42:00,28.0,5.7,30.18,North,356,0.0,0.0,38,-99.99,,CLR,-99.99,VWS V14.01,2013-03-22 04:42:00,
2013-03-22 00:44:00,28.0,6.3,30.18,North,356,0.0,0.0,39,-99.99,,CLR,-99.99,VWS V14.01,2013-03-22 04:44:00,
2013-03-22 00:45:00,27.9,6.1,30.18,North,356,0.0,0.0,39,-99.99,,CLR,-99.99,VWS V14.01,2013-03-22 04:45:00,
2013-03-22 00:47:00,27.9,6.7,30.18,North,356,0.0,4.0,40,-99.99,,CLR,-99.99,VWS V14.01,2013-03-22 04:47:00,
2013-03-22 00:48:00,27.9,6.7,30.18,North,356,0.0,4.0,40,-99.99,,CLR,-99.99,VWS V14.01,2013-03-22 04:48:00,
2013-03-22 00:49:00,27.7,6.5,30.18,North,356,3.6,3.6,40,-99.99,,CLR,-99.99,VWS V14.01,2013-03-22 04:49:00,
2013-03-22 00:52:00,27.5,6.4,30.18,North,356,0.0,0.0,40,-99.99,,CLR,-99.99,VWS V14.01,2013-03-22 04:52:00,
2013-03-22 00:53:00,27.5,6.9,30.18,North,356,0.0,0.0,41,-99.99,,CLR,-99.99,VWS V14.01,2013-03-22 04:53:00,
2013-03-22 00:54:00,27.5,6.9,30.18,North,356,0.0,0.0,41,-99.99,,CLR,-99.99,VWS V14.01,2013-03-22 04:54:00,
2013-03-22 00:59:00,27.1,6.6,30.18,North,356,3.1,3.1,41,-99.99,,CLR,-99.99,VWS V14.01,2013-03-22 04:59:00,
2013-03-22 01:00:00,27.1,6.6,30.18,North,356,0.0,0.0,41,-99.99,,CLR,-99.99,VWS V14.01,2013-03-22 05:00:00,
2013-03-22 01:03:00,27.1,6.6,30.18,North,356,0.0,0.0,41,-99.99,,CLR,-99.99,VWS V14.01,2013-03-22 05:03:00,
2013-03-22 01:04:00,27.1,6.6,30.18,North,356,0.0,0.0,41,-99.99,,CLR,-99.99,VWS V14.01,2013-03-22 05:04:00,
2013-03-22 01:05:00,27.0,6.4,30.18,North,356,0.0,0.0,41,-99.99,,CLR,-99.99,VWS V14.01,2013-03-22 05:05:00,
2013-03-22 01:07:00,27.0,6.4,30.18,North,356,0.0,0.0,41,-99.99,,CLR,-99.99,VWS V14.01,2013-03-22 05:07:00,
2013-03-22 01:09:00,27.0,6.4,30.18,North,356,0.0,0.0,41,-99.99,,CLR,-99.99,VWS V14.01,2013-03-22 05:09:00,
2013-03-22 01:10:00,27.0,5.9,30.18,North,356,0.0,0.0,40,-99.99,,CLR,-99.99,VWS V14.01,2013-03-22 05:10:00,
2013-03-22 01:14:00,26.8,5.7,30.18,North,356,0.0,0.0,40,-99.99,,CLR,-99.99,VWS V14.01,2013-03-22 05:14:00,
2013-03-22 01:15:00,26.8,5.7,30.18,North,356,0.0,0.0,40,-99.99,,CLR,-99.99,VWS V14.01,2013-03-22 05:15:00,
2013-03-22 01:18:00,26.8,5.7,30.18,North,356,0.0,0.0,40,-99.99,,CLR,-99.99,VWS V14.01,2013-03-22 05:18:00,
2013-03-22 01:20:00,26.6,5.6,30.18,North,356,0.0,0.0,40,-99.99,,CLR,-99.99,VWS V14.01,2013-03-22 05:20:00,
2013-03-22 01:23:00,26.6,5.6,30.18,North,356,4.9,5.4,40,-99.99,,CLR,-99.99,VWS V14.01,2013-03-22 05:23:00,
2013-03-22 01:25:00,26.6,6.1,30.18,North,356,0.0,0.0,41,-99.99,,CLR,-99.99,VWS V14.01,2013-03-22 05:25:00,
2013-03-22 01:29:00,26.8,6.2,30.18,North,356,0.0,0.0,41,-99.99,,CLR,-99.99,VWS V14.01,2013-03-22 05:29:00,
2013-03-22 01:30:00,26.8,6.2,30.18,North,356,2.7,2.7,41,-99.99,,CLR,-99.99,VWS V14.01,2013-03-22 05:30:00,
2013-03-22 01:31:00,26.8,6.2,30.18,North,356,3.6,3.6,41,-99.99,,CLR,-99.99,VWS V14.01,2013-03-22 05:31:00,
2013-03-22 01:34:00,26.6,6.6,30.18,North,356,0.0,0.0,42,-99.99,,CLR,-99.99,VWS V14.01,2013-03-22 05:34:00,
2013-03-22 01:36:00,26.6,6.6,30.18,North,356,0.0,2.7,42,-99.99,,CLR,-99.99,VWS V14.01,2013-03-22 05:36:00,
2013-03-22 01:39:00,26.4,6.4,30.18,North,356,0.0,0.0,42,-99.99,,CLR,-99.99,VWS V14.01,2013-03-22 05:39:00,
2013-03-22 01:41:00,26.4,6.4,30.18,North,356,0.0,0.0,42,-99.99,,CLR,-99.99,VWS V14.01,2013-03-22 05:41:00,
2013-03-22 01:42:00,26.4,6.4,30.18,North,356,0.0,0.0,42,-99.99,,CLR,-99.99,VWS V14.01,2013-03-22 05:42:00,
2013-03-22 01:45:00,26.2,6.3,30.18,North,356,0.0,0.0,42,-99.99,,CLR,-99.99,VWS V14.01,2013-03-22 05:45:00,
2013-03-22 01:47:00,26.2,5.8,30.18,North,356,0.0,0.0,41,-99.99,,CLR,-99.99,VWS V14.01,2013-03-22 05:47:00,
2013-03-22 01:48:00,26.2,5.8,30.18,North,356,0.0,0.0,41,-99.99,,CLR,-99.99,VWS V14.01,2013-03-22 05:48:00,
2013-03-22 01:51:00,26.2,5.8,30.18,North,356,0.0,0.0,41,-99.99,,CLR,-99.99,VWS V14.01,2013-03-22 05:51:00,
2013-03-22 01:52:00,26.1,5.6,30.18,North,356,0.0,0.0,41,-99.99,,CLR,-99.99,VWS V14.01,2013-03-22 05:52:00,
2013-03-22 01:53:00,26.1,5.6,30.18,North,356,0.0,0.0,41,-99.99,,CLR,-99.99,VWS V14.01,2013-03-22 05:53:00,
2013-03-22 01:55:00,26.1,5.6,30.18,North,356,0.0,0.0,41,-99.99,,CLR,-99.99,VWS V14.01,2013-03-22 05:55:00,
2013-03-22 01:56:00,25.9,5.4,30.18,North,356,0.0,0.0,41,-99.99,,CLR,-99.99,VWS V14.01,2013-03-22 05:56:00,
2013-03-22 01:58:00,25.9,5.4,30.18,North,356,0.0,0.0,41,-99.99,,CLR,-99.99,VWS V14.01,2013-03-22 05:58:00,
2013-03-22 01:59:00,25.9,5.4,30.18,North,356,0.0,0.0,41,-99.99,,CLR,-99.99,VWS V14.01,2013-03-22 05:59:00,
2013-03-22 02:02:00,25.7,5.8,30.18,North,356,0.0,0.0,42,-99.99,,CLR,-99.99,VWS V14.01,2013-03-22 06:02:00,
2013-03-22 02:03:00,25.5,5.6,30.18,North,356,0.0,0.0,42,-99.99,,CLR,-99.99,VWS V14.01,2013-03-22 06:03:00,
2013-03-22 02:04:00,25.5,5.6,30.18,North,356,0.0,0.0,42,-99.99,,CLR,-99.99,VWS V14.01,2013-03-22 06:04:00,
2013-03-22 02:09:00,25.3,5.5,30.18,North,356,0.0,0.0,42,-99.99,,CLR,-99.99,VWS V14.01,2013-03-22 06:09:00,
2013-03-22 02:10:00,25.3,5.5,30.18,North,356,0.0,0.0,42,-99.99,,CLR,-99.99,VWS V14.01,2013-03-22 06:10:00,
2013-03-22 02:14:00,25.3,5.5,30.18,North,356,0.0,0.0,42,-99.99,,CLR,-99.99,VWS V14.01,2013-03-22 06:14:00,
2013-03-22 02:15:00,25.3,5.5,30.18,North,356,0.0,0.0,42,-99.99,,CLR,-99.99,VWS V14.01,2013-03-22 06:15:00,
2013-03-22 02:16:00,25.3,5.5,30.18,North,356,0.0,0.0,42,-99.99,,CLR,-99.99,VWS V14.01,2013-03-22 06:16:00,
2013-03-22 02:18:00,25.3,5.5,30.18,North,356,0.0,0.0,42,-99.99,,CLR,-99.99,VWS V14.01,2013-03-22 06:18:00,
2013-03-22 02:19:00,25.3,5.5,30.18,North,356,0.0,0.0,42,-99.99,,CLR,-99.99,VWS V14.01,2013-03-22 06:19:00,
2013-03-22 02:20:00,25.3,5.5,30.18,North,356,0.0,0.0,42,-99.99,,CLR,-99.99,VWS V14.01,2013-03-22 06:20:00,
2013-03-22 02:21:00,25.3,5.5,30.18,North,356,0.0,0.0,42,-99.99,,CLR,-99.99,VWS V14.01,2013-03-22 06:21:00,
2013-03-22 02:25:00,25.2,5.3,30.18,North,356,0.0,0.0,42,-99.99,,CLR,-99.99,VWS V14.01,2013-03-22 06:25:00,
2013-03-22 02:26:00,25.2,5.3,30.18,North,356,0.0,0.0,42,-99.99,,CLR,-99.99,VWS V14.01,2013-03-22 06:26:00,
2013-03-22 02:27:00,25.2,5.3,30.18,North,356,0.0,0.0,42,-99.99,,CLR,-99.99,VWS V14.01,2013-03-22 06:27:00,
2013-03-22 02:31:00,24.8,5.0,30.18,North,356,0.0,0.0,42,-99.99,,CLR,-99.99,VWS V14.01,2013-03-22 06:31:00,
2013-03-22 02:32:00,24.6,4.8,30.18,North,0,0.0,0.0,42,-99.99,,CLR,-99.99,VWS V14.01,2013-03-22 06:32:00,
2013-03-22 02:37:00,24.6,4.8,30.21,North,356,0.0,0.0,42,-99.99,,CLR,-99.99,VWS V14.01,2013-03-22 06:37:00,
2013-03-22 02:39:00,24.6,5.3,30.21,North,356,0.0,0.0,43,-99.99,,CLR,-99.99,VWS V14.01,2013-03-22 06:39:00,
2013-03-22 02:42:00,24.6,4.8,30.21,North,356,0.0,0.0,42,-99.99,,CLR,-99.99,VWS V14.01,2013-03-22 06:42:00,
2013-03-22 02:43:00,24.6,4.8,30.21,North,356,0.0,0.0,42,-99.99,,CLR,-99.99,VWS V14.01,2013-03-22 06:43:00,
2013-03-22 02:44:00,24.6,4.8,30.21,North,356,0.0,0.0,42,-99.99,,CLR,-99.99,VWS V14.01,2013-03-22 06:44:00,
2013-03-22 02:46:00,24.4,5.2,30.21,North,356,0.0,0.0,43,-99.99,,CLR,-99.99,VWS V14.01,2013-03-22 06:46:00,
2013-03-22 02:48:00,24.4,5.2,30.21,North,356,0.0,0.0,43,-99.99,,CLR,-99.99,VWS V14.01,2013-03-22 06:48:00,
2013-03-22 02:50:00,24.4,5.2,30.21,North,0,0.0,0.0,43,-99.99,,CLR,-99.99,VWS V14.01,2013-03-22 06:50:00,
2013-03-22 02:51:00,24.3,5.0,30.21,North,356,0.0,0.0,43,-99.99,,CLR,-99.99,VWS V14.01,2013-03-22 06:51:00,
2013-03-22 02:54:00,24.1,4.8,30.21,North,356,0.0,0.0,43,-99.99,,CLR,-99.99,VWS V14.01,2013-03-22 06:54:00,
2013-03-22 02:55:00,24.1,4.8,30.21,North,356,0.0,0.0,43,-99.99,,CLR,-99.99,VWS V14.01,2013-03-22 06:55:00,
2013-03-22 02:56:00,24.1,4.8,30.21,North,356,0.0,0.0,43,-99.99,,CLR,-99.99,VWS V14.01,2013-03-22 06:56:00,
2013-03-22 02:57:00,23.9,4.7,30.21,North,356,0.0,0.0,43,-99.99,,CLR,-99.99,VWS V14.01,2013-03-22 06:57:00,
2013-03-22 03:00:00,23.9,4.7,30.21,North,356,0.0,0.0,43,-99.99,,CLR,-99.99,VWS V14.01,2013-03-22 07:00:00,
2013-03-22 03:02:00,23.9,4.7,30.21,North,356,0.0,0.0,43,-99.99,,CLR,-99.99,VWS V14.01,2013-03-22 07:02:00,
2013-03-22 03:04:00,24.1,4.8,30.21,North,356,0.0,0.0,43,-99.99,,CLR,-99.99,VWS V14.01,2013-03-22 07:04:00,
2013-03-22 03:05:00,24.1,4.8,30.21,North,356,0.0,0.0,43,-99.99,,CLR,-99.99,VWS V14.01,2013-03-22 07:05:00,
2013-03-22 03:06:00,24.1,4.8,30.21,North,356,0.0,0.0,43,-99.99,,CLR,-99.99,VWS V14.01,2013-03-22 07:06:00,
2013-03-22 03:07:00,24.3,5.0,30.21,North,356,0.0,0.0,43,-99.99,,CLR,-99.99,VWS V14.01,2013-03-22 07:07:00,
2013-03-22 03:10:00,24.3,5.0,30.21,North,356,0.0,0.0,43,-99.99,,CLR,-99.99,VWS V14.01,2013-03-22 07:10:00,
2013-03-22 03:11:00,24.3,5.0,30.21,North,356,0.0,0.0,43,-99.99,,CLR,-99.99,VWS V14.01,2013-03-22 07:11:00,
2013-03-22 03:12:00,24.3,5.0,30.21,North,356,0.0,0.0,43,-99.99,,CLR,-99.99,VWS V14.01,2013-03-22 07:12:00,
2013-03-22 03:15:00,24.4,5.2,30.21,North,356,0.0,0.0,43,-99.99,,CLR,-99.99,VWS V14.01,2013-03-22 07:15:00,
2013-03-22 03:16:00,24.4,5.7,30.21,North,356,0.0,0.0,44,-99.99,,CLR,-99.99,VWS V14.01,2013-03-22 07:16:00,
2013-03-22 03:17:00,24.4,5.7,30.21,North,356,0.0,0.0,44,-99.99,,CLR,-99.99,VWS V14.01,2013-03-22 07:17:00,
2013-03-22 03:19:00,24.4,5.7,30.21,North,356,0.0,0.0,44,-99.99,,CLR,-99.99,VWS V14.01,2013-03-22 07:19:00,
2013-03-22 03:21:00,24.3,5.5,30.18,North,356,0.0,0.0,44,-99.99,,CLR,-99.99,VWS V14.01,2013-03-22 07:21:00,
2013-03-22 03:22:00,24.3,5.5,30.18,North,356,0.0,0.0,44,-99.99,,CLR,-99.99,VWS V14.01,2013-03-22 07:22:00,
2013-03-22 03:24:00,24.3,5.5,30.18,North,356,0.0,0.0,44,-99.99,,CLR,-99.99,VWS V14.01,2013-03-22 07:24:00,
2013-03-22 03:25:00,24.3,5.5,30.18,North,356,0.0,0.0,44,-99.99,,CLR,-99.99,VWS V14.01,2013-03-22 07:25:00,
2013-03-22 03:26:00,24.1,5.3,30.18,North,0,0.0,0.0,44,-99.99,,CLR,-99.99,VWS V14.01,2013-03-22 07:26:00,
2013-03-22 03:28:00,24.1,5.3,30.18,North,356,0.0,0.0,44,-99.99,,CLR,-99.99,VWS V14.01,2013-03-22 07:28:00,
2013-03-22 03:29:00,24.1,5.3,30.18,North,356,0.0,0.0,44,-99.99,,CLR,-99.99,VWS V14.01,2013-03-22 07:29:00,
2013-03-22 03:30:00,24.1,5.3,30.18,North,356,0.0,0.0,44,-99.99,,CLR,-99.99,VWS V14.01,2013-03-22 07:30:00,
2013-03-22 03:32:00,24.1,5.3,30.18,North,356,0.0,0.0,44,-99.99,,CLR,-99.99,VWS V14.01,2013-03-22 07:32:00,
2013-03-22 03:34:00,24.1,5.3,30.18,North,356,0.0,0.0,44,-99.99,,CLR,-99.99,VWS V14.01,2013-03-22 07:34:00,
2013-03-22 03:35:00,24.1,5.3,30.18,North,356,0.0,0.0,44,-99.99,,CLR,-99.99,VWS V14.01,2013-03-22 07:35:00,
2013-03-22 03:36:00,24.1,5.3,30.18,North,0,0.0,0.0,44,-99.99,,CLR,-99.99,VWS V14.01,2013-03-22 07:36:00,
2013-03-22 03:37:00,24.1,5.3,30.18,North,356,0.0,0.0,44,-99.99,,CLR,-99.99,VWS V14.01,2013-03-22 07:37:00,
2013-03-22 03:41:00,23.9,5.2,30.18,North,356,0.0,0.0,44,-99.99,,CLR,-99.99,VWS V14.01,2013-03-22 07:41:00,
2013-03-22 03:42:00,23.9,5.2,30.18,North,356,0.0,0.0,44,-99.99,,CLR,-99.99,VWS V14.01,2013-03-22 07:42:00,
2013-03-22 03:46:00,23.9,5.2,30.18,North,356,0.0,0.0,44,-99.99,,CLR,-99.99,VWS V14.01,2013-03-22 07:46:00,
2013-03-22 03:47:00,23.9,5.2,30.18,North,356,0.0,0.0,44,-99.99,,CLR,-99.99,VWS V14.01,2013-03-22 07:47:00,
2013-03-22 03:48:00,23.9,5.2,30.18,North,356,0.0,0.0,44,-99.99,,CLR,-99.99,VWS V14.01,2013-03-22 07:48:00,
2013-03-22 03:51:00,23.7,5.0,30.18,North,356,0.0,0.0,44,-99.99,,CLR,-99.99,VWS V14.01,2013-03-22 07:51:00,
2013-03-22 03:52:00,23.7,5.0,30.18,North,356,0.0,0.0,44,-99.99,,CLR,-99.99,VWS V14.01,2013-03-22 07:52:00,
2013-03-22 03:53:00,23.7,5.0,30.18,North,356,0.0,0.0,44,-99.99,,CLR,-99.99,VWS V14.01,2013-03-22 07:53:00,
2013-03-22 03:58:00,23.4,5.2,30.18,North,356,0.0,0.0,45,-99.99,,CLR,-99.99,VWS V14.01,2013-03-22 07:58:00,
2013-03-22 03:59:00,23.4,5.2,30.18,North,356,0.0,0.0,45,-99.99,,CLR,-99.99,VWS V14.01,2013-03-22 07:59:00,
2013-03-22 04:03:00,23.2,5.0,30.18,North,356,0.0,0.0,45,-99.99,,CLR,-99.99,VWS V14.01,2013-03-22 08:03:00,
2013-03-22 04:04:00,23.2,5.0,30.18,North,0,0.0,0.0,45,-99.99,,CLR,-99.99,VWS V14.01,2013-03-22 08:04:00,
2013-03-22 04:09:00,23.0,4.8,30.21,North,356,0.0,0.0,45,-99.99,,CLR,-99.99,VWS V14.01,2013-03-22 08:09:00,
2013-03-22 04:10:00,23.0,4.8,30.21,North,356,0.0,0.0,45,-99.99,,CLR,-99.99,VWS V14.01,2013-03-22 08:10:00,
2013-03-22 04:14:00,22.8,4.7,30.21,North,356,0.0,0.0,45,-99.99,,CLR,-99.99,VWS V14.01,2013-03-22 08:14:00,
2013-03-22 04:15:00,22.8,4.7,30.21,North,356,0.0,0.0,45,-99.99,,CLR,-99.99,VWS V14.01,2013-03-22 08:15:00,
2013-03-22 04:16:00,22.8,5.2,30.21,North,356,0.0,0.0,46,-99.99,,CLR,-99.99,VWS V14.01,2013-03-22 08:16:00,
2013-03-22 04:19:00,22.6,5.0,30.21,North,356,0.0,0.0,46,-99.99,,CLR,-99.99,VWS V14.01,2013-03-22 08:19:00,
2013-03-22 04:20:00,22.6,5.0,30.21,North,356,0.0,0.0,46,-99.99,,CLR,-99.99,VWS V14.01,2013-03-22 08:20:00,
2013-03-22 04:21:00,22.6,5.0,30.21,North,356,0.0,0.0,46,-99.99,,CLR,-99.99,VWS V14.01,2013-03-22 08:21:00,
2013-03-22 04:22:00,22.6,5.0,30.21,North,356,0.0,0.0,46,-99.99,,CLR,-99.99,VWS V14.01,2013-03-22 08:22:00,
2013-03-22 04:25:00,22.6,5.0,30.21,North,356,0.0,0.0,46,-99.99,,CLR,-99.99,VWS V14.01,2013-03-22 08:25:00,
2013-03-22 04:26:00,22.6,5.0,30.21,North,0,0.0,0.0,46,-99.99,,CLR,-99.99,VWS V14.01,2013-03-22 08:26:00,
2013-03-22 04:27:00,22.6,5.0,30.21,North,356,0.0,0.0,46,-99.99,,CLR,-99.99,VWS V14.01,2013-03-22 08:27:00,
2013-03-22 04:29:00,22.6,5.5,30.21,North,356,0.0,0.0,47,-99.99,,CLR,-99.99,VWS V14.01,2013-03-22 08:29:00,
2013-03-22 04:32:00,22.5,5.3,30.21,North,356,0.0,0.0,47,-99.99,,CLR,-99.99,VWS V14.01,2013-03-22 08:32:00,
2013-03-22 04:37:00,22.5,5.3,30.21,North,356,0.0,0.0,47,-99.99,,CLR,-99.99,VWS V14.01,2013-03-22 08:37:00,
2013-03-22 04:38:00,22.5,5.3,30.21,North,0,0.0,0.0,47,-99.99,,CLR,-99.99,VWS V14.01,2013-03-22 08:38:00,
2013-03-22 04:43:00,22.3,5.1,30.21,North,356,0.0,0.0,47,-99.99,,CLR,-99.99,VWS V14.01,2013-03-22 08:43:00,
2013-03-22 04:44:00,22.3,5.1,30.21,North,356,0.0,0.0,47,-99.99,,CLR,-99.99,VWS V14.01,2013-03-22 08:44:00,
2013-03-22 04:47:00,22.5,5.3,30.21,North,356,0.0,0.0,47,-99.99,,CLR,-99.99,VWS V14.01,2013-03-22 08:47:00,
2013-03-22 04:48:00,22.5,5.3,30.21,North,356,0.0,0.0,47,-99.99,,CLR,-99.99,VWS V14.01,2013-03-22 08:48:00,
2013-03-22 04:51:00,22.3,5.6,30.21,North,356,0.0,0.0,48,-99.99,,CLR,-99.99,VWS V14.01,2013-03-22 08:51:00,
2013-03-22 04:53:00,22.3,5.6,30.21,North,356,0.0,0.0,48,-99.99,,CLR,-99.99,VWS V14.01,2013-03-22 08:53:00,
2013-03-22 04:55:00,22.3,5.6,30.21,North,356,0.0,0.0,48,-99.99,,CLR,-99.99,VWS V14.01,2013-03-22 08:55:00,
2013-03-22 04:57:00,22.1,5.4,30.21,North,356,0.0,0.0,48,-99.99,,CLR,-99.99,VWS V14.01,2013-03-22 08:57:00,
2013-03-22 04:58:00,22.1,5.4,30.21,North,356,0.0,0.0,48,-99.99,,CLR,-99.99,VWS V14.01,2013-03-22 08:58:00,
2013-03-22 04:59:00,22.1,5.4,30.21,North,356,0.0,0.0,48,-99.99,,CLR,-99.99,VWS V14.01,2013-03-22 08:59:00,
2013-03-22 05:00:00,22.1,5.4,30.21,North,356,0.0,0.0,48,-99.99,,CLR,-99.99,VWS V14.01,2013-03-22 09:00:00,
2013-03-22 05:03:00,22.1,5.4,30.21,North,356,0.0,0.0,48,-99.99,,CLR,-99.99,VWS V14.01,2013-03-22 09:03:00,
2013-03-22 05:04:00,22.1,5.4,30.21,North,356,0.0,0.0,48,-99.99,,CLR,-99.99,VWS V14.01,2013-03-22 09:04:00,
2013-03-22 05:05:00,22.1,5.4,30.21,North,356,0.0,0.0,48,-99.99,,CLR,-99.99,VWS V14.01,2013-03-22 09:05:00,
2013-03-22 05:06:00,22.1,5.4,30.21,North,0,0.0,0.0,48,-99.99,,CLR,-99.99,VWS V14.01,2013-03-22 09:06:00,
2013-03-22 05:09:00,22.1,5.4,30.21,North,356,0.0,0.0,48,-99.99,,CLR,-99.99,VWS V14.01,2013-03-22 09:09:00,
2013-03-22 05:11:00,22.1,5.4,30.21,North,0,0.0,0.0,48,-99.99,,CLR,-99.99,VWS V14.01,2013-03-22 09:11:00,
2013-03-22 05:12:00,21.9,5.7,30.21,North,356,0.0,0.0,49,-99.99,,CLR,-99.99,VWS V14.01,2013-03-22 09:12:00,
2013-03-22 05:14:00,21.9,5.7,30.21,North,0,0.0,0.0,49,-99.99,,CLR,-99.99,VWS V14.01,2013-03-22 09:14:00,
2013-03-22 05:15:00,21.9,5.7,30.21,North,356,0.0,0.0,49,-99.99,,CLR,-99.99,VWS V14.01,2013-03-22 09:15:00,
2013-03-22 05:18:00,21.9,5.7,30.21,North,356,0.0,0.0,49,-99.99,,CLR,-99.99,VWS V14.01,2013-03-22 09:18:00,
2013-03-22 05:20:00,21.9,5.7,30.21,North,356,0.0,0.0,49,-99.99,,CLR,-99.99,VWS V14.01,2013-03-22 09:20:00,
2013-03-22 05:22:00,21.9,5.7,30.21,North,356,0.0,0.0,49,-99.99,,CLR,-99.99,VWS V14.01,2013-03-22 09:22:00,
2013-03-22 05:23:00,21.9,5.7,30.21,North,356,0.0,0.0,49,-99.99,,CLR,-99.99,VWS V14.01,2013-03-22 09:23:00,
2013-03-22 05:25:00,21.9,5.7,30.21,North,356,0.0,0.0,49,-99.99,,CLR,-99.99,VWS V14.01,2013-03-22 09:25:00,
2013-03-22 05:27:00,21.9,5.7,30.21,North,356,0.0,0.0,49,-99.99,,CLR,-99.99,VWS V14.01,2013-03-22 09:27:00,
2013-03-22 05:29:00,21.9,5.7,30.21,North,356,0.0,0.0,49,-99.99,,CLR,-99.99,VWS V14.01,2013-03-22 09:29:00,
2013-03-22 05:32:00,21.9,5.7,30.21,North,356,0.0,0.0,49,-99.99,,CLR,-99.99,VWS V14.01,2013-03-22 09:32:00,
2013-03-22 05:34:00,21.7,5.5,30.21,North,0,0.0,0.0,49,-99.99,,CLR,-99.99,VWS V14.01,2013-03-22 09:34:00,
2013-03-22 05:35:00,21.7,5.5,30.21,North,356,0.0,0.0,49,-99.99,,CLR,-99.99,VWS V14.01,2013-03-22 09:35:00,
2013-03-22 05:38:00,21.7,6.0,30.21,North,356,0.0,0.0,50,-99.99,,CLR,-99.99,VWS V14.01,2013-03-22 09:38:00,
2013-03-22 05:39:00,21.7,6.0,30.21,North,356,0.0,0.0,50,-99.99,,CLR,-99.99,VWS V14.01,2013-03-22 09:39:00,
2013-03-22 05:40:00,21.7,6.0,30.21,North,356,0.0,0.0,50,-99.99,,CLR,-99.99,VWS V14.01,2013-03-22 09:40:00,
2013-03-22 05:44:00,21.6,5.8,30.21,North,356,0.0,0.0,50,-99.99,,CLR,-99.99,VWS V14.01,2013-03-22 09:44:00,
2013-03-22 05:46:00,21.4,5.6,30.21,North,356,0.0,0.0,50,-99.99,,CLR,-99.99,VWS V14.01,2013-03-22 09:46:00,
2013-03-22 05:50:00,21.4,5.6,30.21,North,356,0.0,0.0,50,-99.99,,CLR,-99.99,VWS V14.01,2013-03-22 09:50:00,
2013-03-22 05:51:00,21.4,5.6,30.24,North,356,0.0,0.0,50,-99.99,,CLR,-99.99,VWS V14.01,2013-03-22 09:51:00,
2013-03-22 05:52:00,21.4,5.6,30.24,North,356,0.0,0.0,50,-99.99,,CLR,-99.99,VWS V14.01,2013-03-22 09:52:00,
2013-03-22 05:55:00,21.6,5.8,30.24,North,356,0.0,0.0,50,-99.99,,CLR,-99.99,VWS V14.01,2013-03-22 09:55:00,
2013-03-22 05:57:00,21.6,6.2,30.24,North,356,0.0,0.0,51,-99.99,,CLR,-99.99,VWS V14.01,2013-03-22 09:57:00,
2013-03-22 06:00:00,21.6,6.2,30.24,North,356,0.0,0.0,51,-99.99,,CLR,-99.99,VWS V14.01,2013-03-22 10:00:00,
2013-03-22 06:01:00,21.6,6.2,30.24,North,356,0.0,0.0,51,-99.99,,CLR,-99.99,VWS V14.01,2013-03-22 10:01:00,
2013-03-22 06:02:00,21.6,6.2,30.24,North,356,0.0,0.0,51,-99.99,,CLR,-99.99,VWS V14.01,2013-03-22 10:02:00,
2013-03-22 06:05:00,21.4,6.1,30.24,North,356,0.0,0.0,51,-99.99,,CLR,-99.99,VWS V14.01,2013-03-22 10:05:00,
2013-03-22 06:07:00,21.4,6.1,30.24,North,356,0.0,0.0,51,-99.99,,CLR,-99.99,VWS V14.01,2013-03-22 10:07:00,
2013-03-22 06:08:00,21.4,6.1,30.24,North,356,0.0,0.0,51,-99.99,,CLR,-99.99,VWS V14.01,2013-03-22 10:08:00,
2013-03-22 06:10:00,21.4,6.1,30.24,North,356,0.0,0.0,51,-99.99,,CLR,-99.99,VWS V14.01,2013-03-22 10:10:00,
2013-03-22 06:13:00,21.6,6.7,30.24,North,356,0.0,0.0,52,-99.99,,CLR,-99.99,VWS V14.01,2013-03-22 10:13:00,
2013-03-22 06:14:00,21.6,7.1,30.24,North,356,0.0,0.0,53,-99.99,,CLR,-99.99,VWS V14.01,2013-03-22 10:14:00,
2013-03-22 06:15:00,21.6,7.1,30.24,North,0,0.0,0.0,53,-99.99,,CLR,-99.99,VWS V14.01,2013-03-22 10:15:00,
2013-03-22 06:18:00,21.6,7.1,30.24,North,0,0.0,0.0,53,-99.99,,CLR,-99.99,VWS V14.01,2013-03-22 10:18:00,
2013-03-22 06:19:00,21.6,7.1,30.24,North,356,0.0,0.0,53,-99.99,,CLR,-99.99,VWS V14.01,2013-03-22 10:19:00,
2013-03-22 06:20:00,21.6,7.1,30.24,North,356,0.0,0.0,53,-99.99,,CLR,-99.99,VWS V14.01,2013-03-22 10:20:00,
2013-03-22 06:24:00,21.4,6.9,30.24,North,356,0.0,0.0,53,-99.99,,CLR,-99.99,VWS V14.01,2013-03-22 10:24:00,
2013-03-22 06:25:00,21.4,6.9,30.24,North,356,0.0,0.0,53,-99.99,,CLR,-99.99,VWS V14.01,2013-03-22 10:25:00,
2013-03-22 06:27:00,21.4,6.9,30.24,North,356,0.0,0.0,53,-99.99,,CLR,-99.99,VWS V14.01,2013-03-22 10:27:00,
2013-03-22 06:29:00,21.4,6.9,30.24,North,356,0.0,0.0,53,-99.99,,CLR,-99.99,VWS V14.01,2013-03-22 10:29:00,
2013-03-22 06:30:00,21.4,6.9,30.24,North,356,0.0,0.0,53,-99.99,,CLR,-99.99,VWS V14.01,2013-03-22 10:30:00,
2013-03-22 06:32:00,21.4,6.9,30.24,North,356,0.0,0.0,53,-99.99,,CLR,-99.99,VWS V14.01,2013-03-22 10:32:00,
2013-03-22 06:34:00,21.4,6.9,30.24,North,356,0.0,0.0,53,-99.99,,CLR,-99.99,VWS V14.01,2013-03-22 10:34:00,
2013-03-22 06:36:00,21.2,6.8,30.24,North,356,0.0,0.0,53,-99.99,,CLR,-99.99,VWS V14.01,2013-03-22 10:36:00,
2013-03-22 06:38:00,21.2,6.8,30.24,North,0,0.0,0.0,53,-99.99,,CLR,-99.99,VWS V14.01,2013-03-22 10:38:00,
2013-03-22 06:40:00,21.2,6.8,30.24,North,356,0.0,0.0,53,-99.99,,CLR,-99.99,VWS V14.01,2013-03-22 10:40:00,
2013-03-22 06:41:00,21.2,6.8,30.24,North,356,0.0,0.0,53,-99.99,,CLR,-99.99,VWS V14.01,2013-03-22 10:41:00,
2013-03-22 06:43:00,21.0,6.6,30.24,North,356,0.0,0.0,53,-99.99,,CLR,-99.99,VWS V14.01,2013-03-22 10:43:00,
2013-03-22 06:45:00,21.2,6.8,30.24,North,356,0.0,0.0,53,-99.99,,CLR,-99.99,VWS V14.01,2013-03-22 10:45:00,
2013-03-22 06:47:00,21.2,6.8,30.24,North,356,0.0,0.0,53,-99.99,,CLR,-99.99,VWS V14.01,2013-03-22 10:47:00,
2013-03-22 06:48:00,21.0,6.6,30.24,North,356,0.0,0.0,53,-99.99,,CLR,-99.99,VWS V14.01,2013-03-22 10:48:00,
2013-03-22 06:49:00,21.0,6.6,30.24,North,0,0.0,0.0,53,-99.99,,CLR,-99.99,VWS V14.01,2013-03-22 10:49:00,
2013-03-22 06:51:00,21.0,6.6,30.27,North,356,0.0,0.0,53,-99.99,,CLR,-99.99,VWS V14.01,2013-03-22 10:51:00,
2013-03-22 06:53:00,21.0,6.6,30.27,North,356,0.0,0.0,53,-99.99,,CLR,-99.99,VWS V14.01,2013-03-22 10:53:00,
2013-03-22 06:55:00,21.0,7.0,30.27,North,0,0.0,0.0,54,-99.99,,CLR,-99.99,VWS V14.01,2013-03-22 10:55:00,
2013-03-22 06:57:00,21.0,7.0,30.27,North,356,0.0,0.0,54,-99.99,,CLR,-99.99,VWS V14.01,2013-03-22 10:57:00,
2013-03-22 06:59:00,21.0,7.0,30.27,North,356,0.0,0.0,54,-99.99,,CLR,-99.99,VWS V14.01,2013-03-22 10:59:00,
2013-03-22 07:00:00,21.0,7.0,30.27,North,356,0.0,0.0,54,-99.99,,CLR,-99.99,VWS V14.01,2013-03-22 11:00:00,
2013-03-22 07:03:00,20.8,6.8,30.27,North,0,0.0,0.0,54,-99.99,,CLR,-99.99,VWS V14.01,2013-03-22 11:03:00,
2013-03-22 07:04:00,20.8,6.8,30.27,North,356,0.0,0.0,54,-99.99,,CLR,-99.99,VWS V14.01,2013-03-22 11:04:00,
2013-03-22 07:05:00,20.8,6.8,30.27,North,356,0.0,0.0,54,-99.99,,CLR,-99.99,VWS V14.01,2013-03-22 11:05:00,
2013-03-22 07:09:00,20.7,6.7,30.27,North,356,0.0,0.0,54,-99.99,,CLR,-99.99,VWS V14.01,2013-03-22 11:09:00,
2013-03-22 07:10:00,20.7,6.7,30.27,North,356,0.0,0.0,54,-99.99,,CLR,-99.99,VWS V14.01,2013-03-22 11:10:00,
2013-03-22 07:11:00,20.7,6.7,30.27,North,356,0.0,0.0,54,-99.99,,CLR,-99.99,VWS V14.01,2013-03-22 11:11:00,
2013-03-22 07:13:00,20.7,6.7,30.27,North,356,0.0,0.0,54,-99.99,,CLR,-99.99,VWS V14.01,2013-03-22 11:13:00,
2013-03-22 07:15:00,20.7,6.7,30.27,North,0,0.0,0.0,54,-99.99,,CLR,-99.99,VWS V14.01,2013-03-22 11:15:00,
2013-03-22 07:17:00,20.7,6.7,30.27,North,356,0.0,0.0,54,-99.99,,CLR,-99.99,VWS V14.01,2013-03-22 11:17:00,
2013-03-22 07:18:00,20.7,6.7,30.27,North,356,0.0,0.0,54,-99.99,,CLR,-99.99,VWS V14.01,2013-03-22 11:18:00,
2013-03-22 07:20:00,20.7,7.1,30.27,North,356,0.0,0.0,55,-99.99,,CLR,-99.99,VWS V14.01,2013-03-22 11:20:00,
2013-03-22 07:23:00,20.8,7.2,30.27,North,356,0.0,0.0,55,-99.99,,CLR,-99.99,VWS V14.01,2013-03-22 11:23:00,
2013-03-22 07:24:00,20.8,7.2,30.27,North,356,0.0,0.0,55,-99.99,,CLR,-99.99,VWS V14.01,2013-03-22 11:24:00,
2013-03-22 07:26:00,20.8,7.6,30.27,North,356,0.0,0.0,56,-99.99,,CLR,-99.99,VWS V14.01,2013-03-22 11:26:00,
2013-03-22 07:29:00,21.0,7.8,30.27,North,0,0.0,0.0,56,-99.99,,CLR,-99.99,VWS V14.01,2013-03-22 11:29:00,
2013-03-22 07:32:00,21.0,8.2,30.27,North,356,0.0,0.0,57,-99.99,,CLR,-99.99,VWS V14.01,2013-03-22 11:32:00,
2013-03-22 07:34:00,20.8,8.0,30.27,North,356,0.0,0.0,57,-99.99,,CLR,-99.99,VWS V14.01,2013-03-22 11:34:00,
2013-03-22 07:35:00,20.8,8.0,30.27,North,356,0.0,0.0,57,-99.99,,CLR,-99.99,VWS V14.01,2013-03-22 11:35:00,
2013-03-22 07:37:00,20.8,8.0,30.27,North,356,0.0,0.0,57,-99.99,,CLR,-99.99,VWS V14.01,2013-03-22 11:37:00,
2013-03-22 07:39:00,21.0,8.2,30.27,North,356,0.0,0.0,57,-99.99,,CLR,-99.99,VWS V14.01,2013-03-22 11:39:00,
2013-03-22 07:41:00,21.0,8.2,30.27,North,356,0.0,0.0,57,-99.99,,CLR,-99.99,VWS V14.01,2013-03-22 11:41:00,
2013-03-22 07:42:00,21.0,8.2,30.27,North,356,0.0,0.0,57,-99.99,,CLR,-99.99,VWS V14.01,2013-03-22 11:42:00,
2013-03-22 07:44:00,21.2,8.7,30.27,North,356,0.0,0.0,58,-99.99,,CLR,-99.99,VWS V14.01,2013-03-22 11:44:00,
2013-03-22 07:46:00,21.2,8.7,30.27,North,356,0.0,0.0,58,-99.99,,CLR,-99.99,VWS V14.01,2013-03-22 11:46:00,
2013-03-22 07:48:00,21.2,8.7,30.27,North,356,0.0,0.0,58,-99.99,,CLR,-99.99,VWS V14.01,2013-03-22 11:48:00,
2013-03-22 07:50:00,21.2,8.7,30.27,North,356,0.0,0.0,58,-99.99,,CLR,-99.99,VWS V14.01,2013-03-22 11:50:00,
2013-03-22 07:51:00,21.2,8.7,30.27,North,356,0.0,0.0,58,-99.99,,CLR,-99.99,VWS V14.01,2013-03-22 11:51:00,
2013-03-22 07:52:00,21.4,8.9,30.27,North,356,0.0,0.0,58,-99.99,,CLR,-99.99,VWS V14.01,2013-03-22 11:52:00,
2013-03-22 07:54:00,21.4,8.9,30.27,North,356,0.0,0.0,58,-99.99,,CLR,-99.99,VWS V14.01,2013-03-22 11:54:00,
2013-03-22 07:55:00,21.4,8.9,30.27,North,356,0.0,0.0,58,-99.99,,CLR,-99.99,VWS V14.01,2013-03-22 11:55:00,
2013-03-22 07:56:00,21.4,8.9,30.27,North,356,0.0,0.0,58,-99.99,,CLR,-99.99,VWS V14.01,2013-03-22 11:56:00,
2013-03-22 07:57:00,21.4,8.9,30.27,North,356,0.0,0.0,58,-99.99,,CLR,-99.99,VWS V14.01,2013-03-22 11:57:00,
2013-03-22 08:00:00,21.7,9.2,30.27,North,356,0.0,0.0,58,-99.99,,CLR,-99.99,VWS V14.01,2013-03-22 12:00:00,
2013-03-22 08:02:00,21.9,9.4,30.27,North,356,0.0,0.0,58,-99.99,,CLR,-99.99,VWS V14.01,2013-03-22 12:02:00,
2013-03-22 08:03:00,21.9,9.4,30.27,North,356,0.0,0.0,58,-99.99,,CLR,-99.99,VWS V14.01,2013-03-22 12:03:00,
2013-03-22 08:05:00,22.1,9.6,30.27,North,356,0.0,0.0,58,-99.99,,CLR,-99.99,VWS V14.01,2013-03-22 12:05:00,
2013-03-22 08:06:00,22.1,9.6,30.27,North,356,0.0,0.0,58,-99.99,,CLR,-99.99,VWS V14.01,2013-03-22 12:06:00,
2013-03-22 08:07:00,22.3,9.8,30.27,North,356,0.0,0.0,58,-99.99,,CLR,-99.99,VWS V14.01,2013-03-22 12:07:00,
2013-03-22 08:08:00,22.3,9.8,30.27,North,356,0.0,0.0,58,-99.99,,CLR,-99.99,VWS V14.01,2013-03-22 12:08:00,
2013-03-22 08:11:00,22.6,10.1,30.27,North,356,0.0,0.0,58,-99.99,,CLR,-99.99,VWS V14.01,2013-03-22 12:11:00,
2013-03-22 08:13:00,22.8,10.3,30.27,North,356,0.0,0.0,58,-99.99,,CLR,-99.99,VWS V14.01,2013-03-22 12:13:00,
2013-03-22 08:17:00,23.4,11.2,30.27,North,356,0.0,0.0,59,-99.99,,CLR,-99.99,VWS V14.01,2013-03-22 12:17:00,
2013-03-22 08:18:00,23.4,11.2,30.27,North,356,0.0,0.0,59,-99.99,,CLR,-99.99,VWS V14.01,2013-03-22 12:18:00,
2013-03-22 08:20:00,23.7,11.5,30.27,North,356,0.0,0.0,59,-99.99,,CLR,-99.99,VWS V14.01,2013-03-22 12:20:00,
2013-03-22 08:22:00,24.1,11.5,30.27,North,0,0.0,0.0,58,-99.99,,CLR,-99.99,VWS V14.01,2013-03-22 12:22:00,
2013-03-22 08:23:00,24.3,11.6,30.27,North,356,0.0,0.0,58,-99.99,,CLR,-99.99,VWS V14.01,2013-03-22 12:23:00,
2013-03-22 08:24:00,24.4,11.8,30.27,North,356,0.0,0.0,58,-99.99,,CLR,-99.99,VWS V14.01,2013-03-22 12:24:00,
2013-03-22 08:25:00,24.6,12.0,30.27,North,356,0.0,0.0,58,-99.99,,CLR,-99.99,VWS V14.01,2013-03-22 12:25:00,
2013-03-22 08:27:00,25.2,12.5,30.27,North,356,0.0,0.0,58,-99.99,,CLR,-99.99,VWS V14.01,2013-03-22 12:27:00,
2013-03-22 08:28:00,25.3,12.6,30.27,North,356,0.0,0.0,58,-99.99,,CLR,-99.99,VWS V14.01,2013-03-22 12:28:00,
2013-03-22 08:30:00,26.1,12.9,30.27,North,356,0.0,0.0,57,-99.99,,CLR,-99.99,VWS V14.01,2013-03-22 12:30:00,
2013-03-22 08:33:00,26.8,13.6,30.27,North,356,0.0,0.0,57,-99.99,,CLR,-99.99,VWS V14.01,2013-03-22 12:33:00,
2013-03-22 08:34:00,27.1,13.9,30.27,North,356,0.0,0.0,57,-99.99,,CLR,-99.99,VWS V14.01,2013-03-22 12:34:00,
2013-03-22 08:37:00,27.9,13.8,30.30,North,356,0.0,0.0,55,-99.99,,CLR,-99.99,VWS V14.01,2013-03-22 12:37:00,
2013-03-22 08:38:00,28.0,13.6,30.30,North,356,0.0,0.0,54,-99.99,,CLR,-99.99,VWS V14.01,2013-03-22 12:38:00,
2013-03-22 08:39:00,28.0,13.6,30.30,North,356,0.0,0.0,54,-99.99,,CLR,-99.99,VWS V14.01,2013-03-22 12:39:00,
2013-03-22 08:43:00,28.9,13.5,30.30,North,356,0.0,0.0,52,-99.99,,CLR,-99.99,VWS V14.01,2013-03-22 12:43:00,
2013-03-22 08:44:00,29.1,13.3,30.30,North,356,0.0,0.0,51,-99.99,,CLR,-99.99,VWS V14.01,2013-03-22 12:44:00,
2013-03-22 08:45:00,29.3,13.4,30.30,North,356,0.0,0.0,51,-99.99,,CLR,-99.99,VWS V14.01,2013-03-22 12:45:00,
2013-03-22 08:48:00,30.2,13.4,30.30,North,356,4.0,5.4,49,-99.99,,CLR,-99.99,VWS V14.01,2013-03-22 12:48:00,
2013-03-22 08:49:00,30.4,12.6,30.30,North,356,2.7,3.1,47,-99.99,,CLR,-99.99,VWS V14.01,2013-03-22 12:49:00,
2013-03-22 08:50:00,30.6,12.7,30.30,North,356,0.0,3.1,47,-99.99,,CLR,-99.99,VWS V14.01,2013-03-22 12:50:00,
2013-03-22 08:53:00,31.3,11.9,30.27,North,356,0.0,0.0,44,-99.99,,CLR,-99.99,VWS V14.01,2013-03-22 12:53:00,
2013-03-22 08:55:00,31.8,11.9,30.27,North,356,5.8,5.8,43,-99.99,,CLR,-99.99,VWS V14.01,2013-03-22 12:55:00,
2013-03-22 08:57:00,31.8,11.4,30.27,North,356,5.8,5.8,42,-99.99,,CLR,-99.99,VWS V14.01,2013-03-22 12:57:00,
2013-03-22 08:59:00,32.2,11.1,30.27,North,356,4.0,4.9,41,-99.99,,CLR,-99.99,VWS V14.01,2013-03-22 12:59:00,
2013-03-22 09:01:00,32.4,11.3,30.27,North,356,2.7,3.1,41,-99.99,,CLR,-99.99,VWS V14.01,2013-03-22 13:01:00,
2013-03-22 09:02:00,32.5,11.5,30.27,North,356,6.3,6.3,41,-99.99,,CLR,-99.99,VWS V14.01,2013-03-22 13:02:00,
2013-03-22 09:04:00,32.7,11.1,30.27,North,356,2.7,6.3,40,-99.99,,CLR,-99.99,VWS V14.01,2013-03-22 13:04:00,
2013-03-22 09:06:00,33.1,11.4,30.27,North,356,3.6,4.0,40,-99.99,,CLR,-99.99,VWS V14.01,2013-03-22 13:06:00,
2013-03-22 09:07:00,33.3,10.4,30.27,North,356,5.8,6.7,38,-99.99,,CLR,-99.99,VWS V14.01,2013-03-22 13:07:00,
2013-03-22 09:10:00,33.6,10.1,30.27,North,356,4.0,5.4,37,-99.99,,CLR,-99.99,VWS V14.01,2013-03-22 13:10:00,
2013-03-22 09:13:00,33.8,9.7,30.27,North,356,3.6,3.6,36,-99.99,,CLR,-99.99,VWS V14.01,2013-03-22 13:13:00,
2013-03-22 09:15:00,34.2,10.0,30.27,North,356,2.7,2.7,36,-99.99,,CLR,-99.99,VWS V14.01,2013-03-22 13:15:00,
2013-03-22 09:16:00,34.3,9.5,30.27,North,356,4.5,5.8,35,-99.99,,CLR,-99.99,VWS V14.01,2013-03-22 13:16:00,
2013-03-22 09:18:00,34.3,8.9,30.27,North,356,7.4,9.2,34,-99.99,,CLR,-99.99,VWS V14.01,2013-03-22 13:18:00,
2013-03-22 09:20:00,34.3,8.2,30.30,North,0,4.0,4.5,33,-99.99,,CLR,-99.99,VWS V14.01,2013-03-22 13:20:00,
2013-03-22 09:21:00,34.3,8.2,30.30,North,356,3.6,5.8,33,-99.99,,CLR,-99.99,VWS V14.01,2013-03-22 13:21:00,
2013-03-22 09:22:00,34.5,8.4,30.30,North,356,3.6,3.6,33,-99.99,,CLR,-99.99,VWS V14.01,2013-03-22 13:22:00,
2013-03-22 09:24:00,34.7,8.6,30.30,North,356,4.9,4.9,33,-99.99,,CLR,-99.99,VWS V14.01,2013-03-22 13:24:00,
2013-03-22 09:25:00,34.9,8.0,30.30,North,356,0.0,3.1,32,-99.99,,CLR,-99.99,VWS V14.01,2013-03-22 13:25:00,
2013-03-22 09:27:00,35.1,8.2,30.30,North,356,0.0,3.6,32,-99.99,,CLR,-99.99,VWS V14.01,2013-03-22 13:27:00,
2013-03-22 09:28:00,35.6,9.4,30.30,North,356,2.7,4.5,33,-99.99,,CLR,-99.99,VWS V14.01,2013-03-22 13:28:00,
2013-03-22 09:31:00,36.1,9.1,30.30,North,356,5.4,5.4,32,-99.99,,CLR,-99.99,VWS V14.01,2013-03-22 13:31:00,
2013-03-22 09:33:00,36.3,9.3,30.30,North,356,3.1,3.1,32,-99.99,,CLR,-99.99,VWS V14.01,2013-03-22 13:33:00,
2013-03-22 09:34:00,36.5,9.5,30.30,North,356,2.7,4.0,32,-99.99,,CLR,-99.99,VWS V14.01,2013-03-22 13:34:00,
2013-03-22 09:38:00,36.5,8.8,30.27,North,356,4.0,7.4,31,-99.99,,CLR,-99.99,VWS V14.01,2013-03-22 13:38:00,
2013-03-22 09:39:00,36.5,8.8,30.27,North,356,3.6,4.9,31,-99.99,,CLR,-99.99,VWS V14.01,2013-03-22 13:39:00,
2013-03-22 09:41:00,36.5,8.8,30.27,North,356,3.6,4.5,31,-99.99,,CLR,-99.99,VWS V14.01,2013-03-22 13:41:00,
2013-03-22 09:43:00,36.7,8.9,30.27,North,356,0.0,0.0,31,-99.99,,CLR,-99.99,VWS V14.01,2013-03-22 13:43:00,
2013-03-22 09:44:00,36.7,8.9,30.27,North,356,0.0,0.0,31,-99.99,,CLR,-99.99,VWS V14.01,2013-03-22 13:44:00,
2013-03-22 09:45:00,36.7,8.9,30.27,North,356,0.0,0.0,31,-99.99,,CLR,-99.99,VWS V14.01,2013-03-22 13:45:00,
2013-03-22 09:48:00,37.2,9.4,30.27,North,356,4.0,5.4,31,-99.99,,CLR,-99.99,VWS V14.01,2013-03-22 13:48:00,
2013-03-22 09:50:00,37.4,9.5,30.27,North,356,0.0,4.0,31,-99.99,,CLR,-99.99,VWS V14.01,2013-03-22 13:50:00,
2013-03-22 09:51:00,37.9,10.0,30.27,North,356,3.6,5.8,31,-99.99,,CLR,-99.99,VWS V14.01,2013-03-22 13:51:00,
2013-03-22 09:54:00,37.4,8.8,30.27,North,356,3.1,4.0,30,-99.99,,CLR,-99.99,VWS V14.01,2013-03-22 13:54:00,
2013-03-22 09:55:00,37.4,8.8,30.27,North,356,0.0,0.0,30,-99.99,,CLR,-99.99,VWS V14.01,2013-03-22 13:55:00,
2013-03-22 09:57:00,37.4,8.8,30.27,North,356,0.0,4.9,30,-99.99,,CLR,-99.99,VWS V14.01,2013-03-22 13:57:00,
2013-03-22 09:59:00,37.6,9.0,30.27,North,356,0.0,0.0,30,-99.99,,CLR,-99.99,VWS V14.01,2013-03-22 13:59:00,
2013-03-22 10:01:00,37.8,9.1,30.27,North,356,3.6,4.9,30,-99.99,,CLR,-99.99,VWS V14.01,2013-03-22 14:01:00,
2013-03-22 10:02:00,38.1,9.4,30.27,North,356,0.0,0.0,30,-99.99,,CLR,-99.99,VWS V14.01,2013-03-22 14:02:00,
2013-03-22 10:04:00,38.5,9.8,30.27,North,356,0.0,0.0,30,-99.99,,CLR,-99.99,VWS V14.01,2013-03-22 14:04:00,
2013-03-22 10:06:00,38.7,9.9,30.30,North,356,0.0,0.0,30,-99.99,,CLR,-99.99,VWS V14.01,2013-03-22 14:06:00,
2013-03-22 10:07:00,39.0,10.2,30.30,North,356,3.1,3.6,30,-99.99,,CLR,-99.99,VWS V14.01,2013-03-22 14:07:00,
2013-03-22 10:08:00,39.2,10.4,30.30,North,356,3.6,4.9,30,-99.99,,CLR,-99.99,VWS V14.01,2013-03-22 14:08:00,
2013-03-22 10:09:00,39.7,10.9,30.30,North,356,3.6,4.0,30,-99.99,,CLR,-99.99,VWS V14.01,2013-03-22 14:09:00,
2013-03-22 10:12:00,39.7,10.9,30.30,North,356,2.7,3.6,30,-99.99,,CLR,-99.99,VWS V14.01,2013-03-22 14:12:00,
2013-03-22 10:14:00,39.7,10.9,30.30,North,356,0.0,0.0,30,-99.99,,CLR,-99.99,VWS V14.01,2013-03-22 14:14:00,
2013-03-22 10:15:00,39.7,10.9,30.30,North,356,0.0,0.0,30,-99.99,,CLR,-99.99,VWS V14.01,2013-03-22 14:15:00,
2013-03-22 10:18:00,40.3,10.6,30.30,North,356,3.6,3.6,29,-99.99,,CLR,-99.99,VWS V14.01,2013-03-22 14:18:00,
2013-03-22 10:21:00,39.9,11.0,30.27,North,356,0.0,0.0,30,-99.99,,CLR,-99.99,VWS V14.01,2013-03-22 14:21:00,
2013-03-22 10:22:00,40.1,11.2,30.27,North,356,3.6,4.0,30,-99.99,,CLR,-99.99,VWS V14.01,2013-03-22 14:22:00,
2013-03-22 10:23:00,40.3,10.6,30.27,North,356,4.0,4.0,29,-99.99,,CLR,-99.99,VWS V14.01,2013-03-22 14:23:00,
2013-03-22 10:26:00,40.6,10.9,30.27,North,356,4.9,4.9,29,-99.99,,CLR,-99.99,VWS V14.01,2013-03-22 14:26:00,
2013-03-22 10:28:00,40.5,10.7,30.27,North,356,4.0,4.9,29,-99.99,,CLR,-99.99,VWS V14.01,2013-03-22 14:28:00,
2013-03-22 10:29:00,40.3,10.6,30.27,North,356,3.1,3.1,29,-99.99,,CLR,-99.99,VWS V14.01,2013-03-22 14:29:00,
2013-03-22 10:31:00,40.1,10.4,30.27,North,356,3.1,4.0,29,-99.99,,CLR,-99.99,VWS V14.01,2013-03-22 14:31:00,
2013-03-22 10:33:00,40.5,10.7,30.27,North,356,2.7,2.7,29,-99.99,,CLR,-99.99,VWS V14.01,2013-03-22 14:33:00,
2013-03-22 10:34:00,40.8,11.0,30.27,North,356,0.0,2.7,29,-99.99,,CLR,-99.99,VWS V14.01,2013-03-22 14:34:00,
2013-03-22 10:35:00,41.0,11.2,30.27,North,356,0.0,0.0,29,-99.99,,CLR,-99.99,VWS V14.01,2013-03-22 14:35:00,
2013-03-22 10:38:00,41.5,11.7,30.27,North,356,4.5,4.9,29,-99.99,,CLR,-99.99,VWS V14.01,2013-03-22 14:38:00,
2013-03-22 10:39:00,41.7,11.8,30.27,North,356,3.6,3.6,29,-99.99,,CLR,-99.99,VWS V14.01,2013-03-22 14:39:00,
2013-03-22 10:40:00,42.1,12.1,30.27,North,356,3.1,3.6,29,-99.99,,CLR,-99.99,VWS V14.01,2013-03-22 14:40:00,
2013-03-22 10:44:00,42.6,12.6,30.27,North,356,4.5,4.5,29,-99.99,,CLR,-99.99,VWS V14.01,2013-03-22 14:44:00,
2013-03-22 10:45:00,42.8,12.8,30.27,North,356,2.7,5.4,29,-99.99,,CLR,-99.99,VWS V14.01,2013-03-22 14:45:00,
2013-03-22 10:47:00,43.3,13.2,30.27,North,356,2.7,4.9,29,-99.99,,CLR,-99.99,VWS V14.01,2013-03-22 14:47:00,
2013-03-22 10:49:00,43.7,12.8,30.27,North,356,3.1,4.0,28,-99.99,,CLR,-99.99,VWS V14.01,2013-03-22 14:49:00,
2013-03-22 10:50:00,43.7,13.5,30.27,North,356,4.5,4.5,29,-99.99,,CLR,-99.99,VWS V14.01,2013-03-22 14:50:00,
2013-03-22 10:52:00,43.5,13.4,30.27,North,356,4.5,4.9,29,-99.99,,CLR,-99.99,VWS V14.01,2013-03-22 14:52:00,
2013-03-22 10:55:00,43.2,13.1,30.27,North,356,0.0,0.0,29,-99.99,,CLR,-99.99,VWS V14.01,2013-03-22 14:55:00,
2013-03-22 10:56:00,43.2,13.1,30.27,North,356,5.8,9.2,29,-99.99,,CLR,-99.99,VWS V14.01,2013-03-22 14:56:00,
2013-03-22 10:57:00,43.2,13.1,30.27,North,356,5.8,7.8,29,-99.99,,CLR,-99.99,VWS V14.01,2013-03-22 14:57:00,
2013-03-22 10:58:00,42.8,12.8,30.27,North,356,2.7,4.5,29,-99.99,,CLR,-99.99,VWS V14.01,2013-03-22 14:58:00,
2013-03-22 11:02:00,43.3,13.2,30.27,North,356,2.7,4.5,29,-99.99,,CLR,-99.99,VWS V14.01,2013-03-22 15:02:00,
2013-03-22 11:04:00,43.9,12.9,30.27,North,356,4.9,6.7,28,-99.99,,CLR,-99.99,VWS V14.01,2013-03-22 15:04:00,
2013-03-22 11:07:00,43.9,12.9,30.27,North,356,4.0,4.0,28,-99.99,,CLR,-99.99,VWS V14.01,2013-03-22 15:07:00,
2013-03-22 11:08:00,43.9,12.9,30.27,North,356,6.9,9.6,28,-99.99,,CLR,-99.99,VWS V14.01,2013-03-22 15:08:00,
2013-03-22 11:09:00,43.7,12.8,30.27,North,356,3.6,6.9,28,-99.99,,CLR,-99.99,VWS V14.01,2013-03-22 15:09:00,
2013-03-22 11:10:00,43.7,13.5,30.27,North,356,3.1,3.1,29,-99.99,,CLR,-99.99,VWS V14.01,2013-03-22 15:10:00,
2013-03-22 11:13:00,44.1,13.1,30.27,North,356,5.4,5.8,28,-99.99,,CLR,-99.99,VWS V14.01,2013-03-22 15:13:00,
2013-03-22 11:14:00,44.2,13.2,30.27,North,356,3.1,5.4,28,-99.99,,CLR,-99.99,VWS V14.01,2013-03-22 15:14:00,
2013-03-22 11:15:00,44.4,13.4,30.27,North,356,4.9,4.9,28,-99.99,,CLR,-99.99,VWS V14.01,2013-03-22 15:15:00,
2013-03-22 11:16:00,45.1,14.0,30.27,North,356,6.9,6.9,28,-99.99,,CLR,-99.99,VWS V14.01,2013-03-22 15:16:00,
2013-03-22 11:18:00,45.3,14.1,30.27,North,356,3.6,5.8,28,-99.99,,CLR,-99.99,VWS V14.01,2013-03-22 15:18:00,
2013-03-22 11:19:00,45.3,14.1,30.27,North,356,3.1,4.0,28,-99.99,,CLR,-99.99,VWS V14.01,2013-03-22 15:19:00,
2013-03-22 11:21:00,45.1,14.0,30.27,North,356,0.0,4.5,28,-99.99,,CLR,-99.99,VWS V14.01,2013-03-22 15:21:00,
2013-03-22 11:22:00,45.0,13.8,30.27,North,356,4.0,5.8,28,-99.99,,CLR,-99.99,VWS V14.01,2013-03-22 15:22:00,
2013-03-22 11:24:00,45.1,14.0,30.27,North,356,4.5,6.3,28,-99.99,,CLR,-99.99,VWS V14.01,2013-03-22 15:24:00,
2013-03-22 11:25:00,45.3,14.1,30.27,North,356,4.9,4.9,28,-99.99,,CLR,-99.99,VWS V14.01,2013-03-22 15:25:00,
2013-03-22 11:27:00,45.1,14.0,30.27,North,356,4.5,5.4,28,-99.99,,CLR,-99.99,VWS V14.01,2013-03-22 15:27:00,
2013-03-22 11:28:00,45.1,14.0,30.27,North,356,4.5,6.7,28,-99.99,,CLR,-99.99,VWS V14.01,2013-03-22 15:28:00,
2013-03-22 11:30:00,45.1,14.0,30.27,North,356,5.8,6.3,28,-99.99,,CLR,-99.99,VWS V14.01,2013-03-22 15:30:00,
2013-03-22 11:31:00,45.0,13.8,30.27,North,356,4.0,6.7,28,-99.99,,CLR,-99.99,VWS V14.01,2013-03-22 15:31:00,
2013-03-22 11:33:00,45.1,14.0,30.27,North,356,6.3,6.3,28,-99.99,,CLR,-99.99,VWS V14.01,2013-03-22 15:33:00,
2013-03-22 11:34:00,45.1,14.0,30.27,North,356,0.0,5.4,28,-99.99,,CLR,-99.99,VWS V14.01,2013-03-22 15:34:00,
2013-03-22 11:36:00,45.0,13.8,30.27,North,356,2.7,4.0,28,-99.99,,CLR,-99.99,VWS V14.01,2013-03-22 15:36:00,
2013-03-22 11:37:00,45.0,13.8,30.27,North,356,0.0,2.7,28,-99.99,,CLR,-99.99,VWS V14.01,2013-03-22 15:37:00,
2013-03-22 11:39:00,45.7,13.6,30.27,North,356,4.5,4.5,27,-99.99,,CLR,-99.99,VWS V14.01,2013-03-22 15:39:00,
2013-03-22 11:40:00,45.9,13.8,30.27,North,356,4.0,4.9,27,-99.99,,CLR,-99.99,VWS V14.01,2013-03-22 15:40:00,
2013-03-22 11:42:00,46.4,14.2,30.27,North,356,3.1,3.1,27,-99.99,,CLR,-99.99,VWS V14.01,2013-03-22 15:42:00,
2013-03-22 11:44:00,46.4,14.2,30.27,North,356,0.0,4.9,27,-99.99,,CLR,-99.99,VWS V14.01,2013-03-22 15:44:00,
2013-03-22 11:45:00,46.4,14.2,30.27,North,356,0.0,4.9,27,-99.99,,CLR,-99.99,VWS V14.01,2013-03-22 15:45:00,
2013-03-22 11:47:00,46.9,14.7,30.27,North,356,3.6,4.9,27,-99.99,,CLR,-99.99,VWS V14.01,2013-03-22 15:47:00,
2013-03-22 11:50:00,47.1,14.9,30.27,North,356,4.0,4.5,27,-99.99,,CLR,-99.99,VWS V14.01,2013-03-22 15:50:00,
2013-03-22 11:51:00,47.3,15.0,30.24,North,356,3.6,4.5,27,-99.99,,CLR,-99.99,VWS V14.01,2013-03-22 15:51:00,
2013-03-22 11:53:00,47.5,15.2,30.24,North,356,4.9,4.9,27,-99.99,,CLR,-99.99,VWS V14.01,2013-03-22 15:53:00,
2013-03-22 11:55:00,47.8,15.5,30.24,North,356,0.0,5.8,27,-99.99,,CLR,-99.99,VWS V14.01,2013-03-22 15:55:00,
2013-03-22 11:57:00,47.8,15.5,30.24,North,356,3.1,3.1,27,-99.99,,CLR,-99.99,VWS V14.01,2013-03-22 15:57:00,
2013-03-22 11:58:00,47.7,15.3,30.24,North,356,3.6,5.4,27,-99.99,,CLR,-99.99,VWS V14.01,2013-03-22 15:58:00,
2013-03-22 12:00:00,48.0,15.6,30.24,North,356,4.5,5.4,27,-99.99,,CLR,-99.99,VWS V14.01,2013-03-22 16:00:00,
2013-03-22 12:01:00,48.2,15.8,30.24,North,356,3.6,6.3,27,-99.99,,CLR,-99.99,VWS V14.01,2013-03-22 16:01:00,
2013-03-22 12:02:00,48.2,15.8,30.24,North,356,0.0,2.7,27,-99.99,,CLR,-99.99,VWS V14.01,2013-03-22 16:02:00,
2013-03-22 12:03:00,48.2,15.8,30.24,North,356,0.0,0.0,27,-99.99,,CLR,-99.99,VWS V14.01,2013-03-22 16:03:00,
2013-03-22 12:05:00,48.6,16.1,30.24,North,356,4.9,5.4,27,-99.99,,CLR,-99.99,VWS V14.01,2013-03-22 16:05:00,
2013-03-22 12:06:00,48.6,16.1,30.27,North,356,7.4,7.4,27,-99.99,,CLR,-99.99,VWS V14.01,2013-03-22 16:06:00,
2013-03-22 12:09:00,48.4,16.0,30.27,North,356,3.6,7.4,27,-99.99,,CLR,-99.99,VWS V14.01,2013-03-22 16:09:00,
2013-03-22 12:12:00,48.2,15.8,30.27,North,356,6.3,7.8,27,-99.99,,CLR,-99.99,VWS V14.01,2013-03-22 16:12:00,
2013-03-22 12:13:00,48.2,15.8,30.27,North,356,5.4,6.3,27,-99.99,,CLR,-99.99,VWS V14.01,2013-03-22 16:13:00,
2013-03-22 12:14:00,48.2,15.8,30.27,North,356,5.4,6.7,27,-99.99,,CLR,-99.99,VWS V14.01,2013-03-22 16:14:00,
2013-03-22 12:15:00,48.4,16.0,30.27,North,356,3.1,6.7,27,-99.99,,CLR,-99.99,VWS V14.01,2013-03-22 16:15:00,
2013-03-22 12:18:00,48.9,16.4,30.27,North,356,4.9,7.4,27,-99.99,,CLR,-99.99,VWS V14.01,2013-03-22 16:18:00,
2013-03-22 12:19:00,48.9,16.4,30.27,North,356,4.9,7.4,27,-99.99,,CLR,-99.99,VWS V14.01,2013-03-22 16:19:00,
2013-03-22 12:20:00,48.9,16.4,30.27,North,356,4.5,4.5,27,-99.99,,CLR,-99.99,VWS V14.01,2013-03-22 16:20:00,
2013-03-22 12:24:00,49.3,16.7,30.24,North,356,4.5,5.4,27,-99.99,,CLR,-99.99,VWS V14.01,2013-03-22 16:24:00,
2013-03-22 12:25:00,49.5,16.9,30.24,North,356,2.7,4.9,27,-99.99,,CLR,-99.99,VWS V14.01,2013-03-22 16:25:00,
2013-03-22 12:26:00,49.6,17.0,30.24,North,356,5.4,6.9,27,-99.99,,CLR,-99.99,VWS V14.01,2013-03-22 16:26:00,
2013-03-22 12:29:00,49.6,17.0,30.24,North,356,4.5,5.4,27,-99.99,,CLR,-99.99,VWS V14.01,2013-03-22 16:29:00,
2013-03-22 12:30:00,49.6,17.0,30.24,North,356,6.3,6.9,27,-99.99,,CLR,-99.99,VWS V14.01,2013-03-22 16:30:00,
2013-03-22 12:32:00,49.6,17.0,30.24,North,356,10.1,11.0,27,-99.99,,CLR,-99.99,VWS V14.01,2013-03-22 16:32:00,
2013-03-22 12:34:00,50.0,17.4,30.24,North,356,5.4,5.4,27,-99.99,,CLR,-99.99,VWS V14.01,2013-03-22 16:34:00,
2013-03-22 12:36:00,50.2,17.5,30.24,North,356,5.4,6.7,27,-99.99,,CLR,-99.99,VWS V14.01,2013-03-22 16:36:00,
2013-03-22 12:38:00,50.9,18.1,30.24,North,356,6.3,6.3,27,-99.99,,CLR,-99.99,VWS V14.01,2013-03-22 16:38:00,
2013-03-22 12:39:00,51.1,17.4,30.24,North,356,6.7,7.4,26,-99.99,,CLR,-99.99,VWS V14.01,2013-03-22 16:39:00,
2013-03-22 12:41:00,50.2,17.5,30.24,North,356,2.7,7.8,27,-99.99,,CLR,-99.99,VWS V14.01,2013-03-22 16:41:00,
2013-03-22 12:43:00,49.5,16.9,30.24,North,356,0.0,7.8,27,-99.99,,CLR,-99.99,VWS V14.01,2013-03-22 16:43:00,
2013-03-22 12:45:00,49.5,16.9,30.24,North,356,3.1,6.9,27,-99.99,,CLR,-99.99,VWS V14.01,2013-03-22 16:45:00,
2013-03-22 12:46:00,49.6,17.0,30.24,North,356,4.5,4.5,27,-99.99,,CLR,-99.99,VWS V14.01,2013-03-22 16:46:00,
2013-03-22 12:48:00,50.2,17.5,30.24,North,356,5.4,6.9,27,-99.99,,CLR,-99.99,VWS V14.01,2013-03-22 16:48:00,
2013-03-22 12:50:00,50.2,17.5,30.24,North,356,4.0,6.3,27,-99.99,,CLR,-99.99,VWS V14.01,2013-03-22 16:50:00,
2013-03-22 12:51:00,50.4,17.7,30.24,North,356,3.6,6.9,27,-99.99,,CLR,-99.99,VWS V14.01,2013-03-22 16:51:00,
2013-03-22 12:52:00,50.4,17.7,30.24,North,356,5.4,6.9,27,-99.99,,CLR,-99.99,VWS V14.01,2013-03-22 16:52:00,
2013-03-22 12:54:00,50.4,17.7,30.24,North,356,4.9,6.3,27,-99.99,,CLR,-99.99,VWS V14.01,2013-03-22 16:54:00,
2013-03-22 12:55:00,50.2,17.5,30.24,North,356,6.3,7.4,27,-99.99,,CLR,-99.99,VWS V14.01,2013-03-22 16:55:00,
2013-03-22 12:57:00,50.7,18.0,30.24,North,356,4.9,6.3,27,-99.99,,CLR,-99.99,VWS V14.01,2013-03-22 16:57:00,
2013-03-22 12:59:00,51.3,17.6,30.24,North,356,6.7,8.3,26,-99.99,,CLR,-99.99,VWS V14.01,2013-03-22 16:59:00,
2013-03-22 13:02:00,52.0,18.2,30.24,North,356,4.5,6.3,26,-99.99,,CLR,-99.99,VWS V14.01,2013-03-22 17:02:00,
2013-03-22 13:05:00,51.8,18.0,30.24,North,356,4.5,5.4,26,-99.99,,CLR,-99.99,VWS V14.01,2013-03-22 17:05:00,
2013-03-22 13:07:00,51.6,17.9,30.24,North,356,4.0,6.9,26,-99.99,,CLR,-99.99,VWS V14.01,2013-03-22 17:07:00,
2013-03-22 13:08:00,51.8,18.0,30.24,North,356,8.7,8.7,26,-99.99,,CLR,-99.99,VWS V14.01,2013-03-22 17:08:00,
2013-03-22 13:11:00,51.6,17.9,30.24,North,356,6.9,6.9,26,-99.99,,CLR,-99.99,VWS V14.01,2013-03-22 17:11:00,
2013-03-22 13:12:00,51.6,17.9,30.24,North,356,3.6,6.9,26,-99.99,,CLR,-99.99,VWS V14.01,2013-03-22 17:12:00,
2013-03-22 13:13:00,51.8,18.0,30.24,North,356,9.2,13.0,26,-99.99,,CLR,-99.99,VWS V14.01,2013-03-22 17:13:00,
2013-03-22 13:16:00,51.3,17.6,30.24,North,356,4.5,6.3,26,-99.99,,CLR,-99.99,VWS V14.01,2013-03-22 17:16:00,
2013-03-22 13:17:00,51.6,17.9,30.24,North,356,5.4,6.7,26,-99.99,,CLR,-99.99,VWS V14.01,2013-03-22 17:17:00,
2013-03-22 13:19:00,51.6,17.9,30.24,North,356,3.6,4.9,26,-99.99,,CLR,-99.99,VWS V14.01,2013-03-22 17:19:00,
2013-03-22 13:22:00,52.3,18.5,30.21,North,356,3.6,7.4,26,-99.99,,CLR,-99.99,VWS V14.01,2013-03-22 17:22:00,
2013-03-22 13:23:00,52.3,18.5,30.21,North,356,6.3,6.9,26,-99.99,,CLR,-99.99,VWS V14.01,2013-03-22 17:23:00,
2013-03-22 13:24:00,52.7,18.8,30.21,North,356,3.6,5.4,26,-99.99,,CLR,-99.99,VWS V14.01,2013-03-22 17:24:00,
2013-03-22 13:27:00,53.8,19.7,30.21,North,356,3.1,7.8,26,-99.99,,CLR,-99.99,VWS V14.01,2013-03-22 17:27:00,
2013-03-22 13:29:00,54.1,20.0,30.21,North,356,7.4,9.2,26,-99.99,,CLR,-99.99,VWS V14.01,2013-03-22 17:29:00,
2013-03-22 13:32:00,54.3,20.2,30.21,North,356,4.9,4.9,26,-99.99,,CLR,-99.99,VWS V14.01,2013-03-22 17:32:00,
2013-03-22 13:33:00,54.1,20.0,30.21,North,356,6.7,8.3,26,-99.99,,CLR,-99.99,VWS V14.01,2013-03-22 17:33:00,
2013-03-22 13:35:00,53.6,19.6,30.21,North,356,4.5,4.5,26,-99.99,,CLR,-99.99,VWS V14.01,2013-03-22 17:35:00,
2013-03-22 13:36:00,53.6,19.6,30.21,North,356,4.9,5.4,26,-99.99,,CLR,-99.99,VWS V14.01,2013-03-22 17:36:00,
2013-03-22 13:38:00,53.4,19.4,30.21,North,356,5.4,6.3,26,-99.99,,CLR,-99.99,VWS V14.01,2013-03-22 17:38:00,
2013-03-22 13:41:00,52.3,18.5,30.21,North,356,4.5,5.4,26,-99.99,,CLR,-99.99,VWS V14.01,2013-03-22 17:41:00,
2013-03-22 13:42:00,52.3,18.5,30.21,North,356,6.7,7.4,26,-99.99,,CLR,-99.99,VWS V14.01,2013-03-22 17:42:00,
2013-03-22 13:43:00,52.0,18.2,30.21,North,356,4.5,6.7,26,-99.99,,CLR,-99.99,VWS V14.01,2013-03-22 17:43:00,
2013-03-22 13:44:00,52.0,18.2,30.21,North,356,2.7,6.7,26,-99.99,,CLR,-99.99,VWS V14.01,2013-03-22 17:44:00,
2013-03-22 13:47:00,52.2,18.3,30.21,North,356,8.7,8.7,26,-99.99,,CLR,-99.99,VWS V14.01,2013-03-22 17:47:00,
2013-03-22 13:49:00,52.0,18.2,30.21,North,356,5.8,10.1,26,-99.99,,CLR,-99.99,VWS V14.01,2013-03-22 17:49:00,
2013-03-22 13:52:00,52.2,18.3,30.21,North,356,3.6,4.5,26,-99.99,,CLR,-99.99,VWS V14.01,2013-03-22 17:52:00,
2013-03-22 13:53:00,52.5,18.6,30.21,North,356,4.5,6.3,26,-99.99,,CLR,-99.99,VWS V14.01,2013-03-22 17:53:00,
2013-03-22 13:55:00,52.9,19.0,30.21,North,356,3.6,5.8,26,-99.99,,CLR,-99.99,VWS V14.01,2013-03-22 17:55:00,
2013-03-22 13:57:00,52.7,18.8,30.21,North,356,6.7,6.7,26,-99.99,,CLR,-99.99,VWS V14.01,2013-03-22 17:57:00,
2013-03-22 13:58:00,52.5,18.6,30.21,North,356,5.8,5.8,26,-99.99,,CLR,-99.99,VWS V14.01,2013-03-22 17:58:00,
2013-03-22 14:00:00,52.7,18.8,30.21,North,356,4.9,5.4,26,-99.99,,CLR,-99.99,VWS V14.01,2013-03-22 18:00:00,
2013-03-22 14:01:00,52.7,18.8,30.21,North,356,0.0,0.0,26,-99.99,,CLR,-99.99,VWS V14.01,2013-03-22 18:01:00,
2013-03-22 14:02:00,52.9,19.0,30.21,North,356,4.5,4.5,26,-99.99,,CLR,-99.99,VWS V14.01,2013-03-22 18:02:00,
2013-03-22 14:04:00,53.4,19.4,30.21,North,356,4.0,4.5,26,-99.99,,CLR,-99.99,VWS V14.01,2013-03-22 18:04:00,
2013-03-22 14:07:00,54.5,20.3,30.21,North,356,3.6,5.8,26,-99.99,,CLR,-99.99,VWS V14.01,2013-03-22 18:07:00,
2013-03-22 14:08:00,54.7,19.6,30.21,North,356,4.5,6.3,25,-99.99,,CLR,-99.99,VWS V14.01,2013-03-22 18:08:00,
2013-03-22 14:09:00,54.7,19.6,30.21,North,356,8.3,8.3,25,-99.99,,CLR,-99.99,VWS V14.01,2013-03-22 18:09:00,
2013-03-22 14:13:00,55.0,19.9,30.21,North,356,5.8,5.8,25,-99.99,,CLR,-99.99,VWS V14.01,2013-03-22 18:13:00,
2013-03-22 14:14:00,54.9,19.7,30.21,North,356,4.5,6.3,25,-99.99,,CLR,-99.99,VWS V14.01,2013-03-22 18:14:00,
2013-03-22 14:18:00,54.5,19.4,30.21,North,356,3.1,4.0,25,-99.99,,CLR,-99.99,VWS V14.01,2013-03-22 18:18:00,
2013-03-22 14:19:00,54.5,19.4,30.21,North,356,3.1,4.0,25,-99.99,,CLR,-99.99,VWS V14.01,2013-03-22 18:19:00,
2013-03-22 14:20:00,54.7,19.6,30.21,North,356,4.0,9.6,25,-99.99,,CLR,-99.99,VWS V14.01,2013-03-22 18:20:00,
2013-03-22 14:21:00,54.9,19.7,30.18,North,356,2.7,5.4,25,-99.99,,CLR,-99.99,VWS V14.01,2013-03-22 18:21:00,
2013-03-22 14:25:00,55.2,20.0,30.18,North,356,3.6,4.9,25,-99.99,,CLR,-99.99,VWS V14.01,2013-03-22 18:25:00,
2013-03-22 14:28:00,55.6,20.3,30.18,North,356,0.0,0.0,25,-99.99,,CLR,-99.99,VWS V14.01,2013-03-22 18:28:00,
2013-03-22 14:30:00,55.4,20.2,30.18,North,356,2.7,4.9,25,-99.99,,CLR,-99.99,VWS V14.01,2013-03-22 18:30:00,
2013-03-22 14:31:00,55.4,20.2,30.18,North,356,3.6,3.6,25,-99.99,,CLR,-99.99,VWS V14.01,2013-03-22 18:31:00,
2013-03-22 14:32:00,55.4,20.2,30.18,North,356,3.6,3.6,25,-99.99,,CLR,-99.99,VWS V14.01,2013-03-22 18:32:00,
2013-03-22 14:34:00,55.6,20.3,30.18,North,356,5.8,9.2,25,-99.99,,CLR,-99.99,VWS V14.01,2013-03-22 18:34:00,
2013-03-22 14:35:00,55.8,20.5,30.18,North,356,0.0,4.0,25,-99.99,,CLR,-99.99,VWS V14.01,2013-03-22 18:35:00,
2013-03-22 14:37:00,55.9,20.6,30.18,North,356,0.0,4.5,25,-99.99,,CLR,-99.99,VWS V14.01,2013-03-22 18:37:00,
2013-03-22 14:41:00,55.9,20.6,30.18,North,356,4.5,5.8,25,-99.99,,CLR,-99.99,VWS V14.01,2013-03-22 18:41:00,
2013-03-22 14:42:00,56.1,20.8,30.18,North,356,0.0,3.6,25,-99.99,,CLR,-99.99,VWS V14.01,2013-03-22 18:42:00,
2013-03-22 14:44:00,56.5,21.1,30.18,North,356,2.7,6.7,25,-99.99,,CLR,-99.99,VWS V14.01,2013-03-22 18:44:00,
2013-03-22 14:47:00,56.3,21.0,30.18,North,356,2.7,6.3,25,-99.99,,CLR,-99.99,VWS V14.01,2013-03-22 18:47:00,
2013-03-22 14:49:00,56.1,20.8,30.18,North,356,5.8,7.4,25,-99.99,,CLR,-99.99,VWS V14.01,2013-03-22 18:49:00,
2013-03-22 14:52:00,55.4,20.2,30.18,North,356,3.1,4.5,25,-99.99,,CLR,-99.99,VWS V14.01,2013-03-22 18:52:00,
2013-03-22 14:53:00,55.2,20.0,30.18,North,356,0.0,4.5,25,-99.99,,CLR,-99.99,VWS V14.01,2013-03-22 18:53:00,
2013-03-22 14:54:00,55.2,20.0,30.18,North,356,0.0,4.9,25,-99.99,,CLR,-99.99,VWS V14.01,2013-03-22 18:54:00,
2013-03-22 14:55:00,55.2,20.0,30.18,North,356,2.7,4.0,25,-99.99,,CLR,-99.99,VWS V14.01,2013-03-22 18:55:00,
2013-03-22 14:58:00,54.9,19.7,30.18,North,356,4.5,6.3,25,-99.99,,CLR,-99.99,VWS V14.01,2013-03-22 18:58:00,
2013-03-22 15:00:00,54.7,19.6,30.18,North,356,4.0,8.3,25,-99.99,,CLR,-99.99,VWS V14.01,2013-03-22 19:00:00,
2013-03-22 15:01:00,54.5,19.4,30.18,North,356,5.8,5.8,25,-99.99,,CLR,-99.99,VWS V14.01,2013-03-22 19:01:00,
2013-03-22 15:03:00,54.5,20.3,30.18,North,356,2.7,4.5,26,-99.99,,CLR,-99.99,VWS V14.01,2013-03-22 19:03:00,
2013-03-22 15:04:00,54.5,20.3,30.18,North,356,3.1,4.5,26,-99.99,,CLR,-99.99,VWS V14.01,2013-03-22 19:04:00,
2013-03-22 15:06:00,54.0,19.9,30.18,North,356,3.1,3.1,26,-99.99,,CLR,-99.99,VWS V14.01,2013-03-22 19:06:00,
2013-03-22 15:09:00,53.8,19.7,30.18,North,356,4.0,6.3,26,-99.99,,CLR,-99.99,VWS V14.01,2013-03-22 19:09:00,
2013-03-22 15:10:00,53.8,19.7,30.18,North,356,3.1,6.3,26,-99.99,,CLR,-99.99,VWS V14.01,2013-03-22 19:10:00,
2013-03-22 15:11:00,54.0,19.9,30.18,North,356,4.0,5.8,26,-99.99,,CLR,-99.99,VWS V14.01,2013-03-22 19:11:00,
2013-03-22 15:12:00,54.1,20.0,30.18,North,356,5.4,5.4,26,-99.99,,CLR,-99.99,VWS V14.01,2013-03-22 19:12:00,
2013-03-22 15:15:00,54.0,19.9,30.18,North,356,4.9,8.3,26,-99.99,,CLR,-99.99,VWS V14.01,2013-03-22 19:15:00,
2013-03-22 15:18:00,54.0,19.9,30.18,North,356,4.0,6.3,26,-99.99,,CLR,-99.99,VWS V14.01,2013-03-22 19:18:00,
2013-03-22 15:20:00,54.0,19.9,30.18,North,356,4.5,4.5,26,-99.99,,CLR,-99.99,VWS V14.01,2013-03-22 19:20:00,
2013-03-22 15:21:00,53.8,19.7,30.18,North,356,6.7,6.7,26,-99.99,,CLR,-99.99,VWS V14.01,2013-03-22 19:21:00,
2013-03-22 15:23:00,53.4,19.4,30.18,North,356,4.0,5.8,26,-99.99,,CLR,-99.99,VWS V14.01,2013-03-22 19:23:00,
2013-03-22 15:26:00,52.9,19.0,30.18,North,356,4.5,8.7,26,-99.99,,CLR,-99.99,VWS V14.01,2013-03-22 19:26:00,
2013-03-22 15:28:00,52.2,18.3,30.18,North,356,5.8,6.3,26,-99.99,,CLR,-99.99,VWS V14.01,2013-03-22 19:28:00,
2013-03-22 15:29:00,52.2,18.3,30.18,North,356,4.9,4.9,26,-99.99,,CLR,-99.99,VWS V14.01,2013-03-22 19:29:00,
2013-03-22 15:32:00,52.2,18.3,30.18,North,356,5.8,6.3,26,-99.99,,CLR,-99.99,VWS V14.01,2013-03-22 19:32:00,
2013-03-22 15:34:00,52.5,18.6,30.18,North,356,4.9,4.9,26,-99.99,,CLR,-99.99,VWS V14.01,2013-03-22 19:34:00,
2013-03-22 15:37:00,52.5,18.6,30.18,North,356,4.5,5.4,26,-99.99,,CLR,-99.99,VWS V14.01,2013-03-22 19:37:00,
2013-03-22 15:39:00,52.3,18.5,30.18,North,356,3.1,4.0,26,-99.99,,CLR,-99.99,VWS V14.01,2013-03-22 19:39:00,
2013-03-22 15:42:00,52.2,18.3,30.18,North,356,3.1,3.1,26,-99.99,,CLR,-99.99,VWS V14.01,2013-03-22 19:42:00,
2013-03-22 15:43:00,52.2,18.3,30.18,North,356,5.8,5.8,26,-99.99,,CLR,-99.99,VWS V14.01,2013-03-22 19:43:00,
2013-03-22 15:44:00,52.0,18.2,30.18,North,356,7.4,7.4,26,-99.99,,CLR,-99.99,VWS V14.01,2013-03-22 19:44:00,
2013-03-22 15:45:00,52.0,18.2,30.18,North,356,4.5,6.7,26,-99.99,,CLR,-99.99,VWS V14.01,2013-03-22 19:45:00,
2013-03-22 15:48:00,52.0,18.2,30.18,North,356,5.4,5.8,26,-99.99,,CLR,-99.99,VWS V14.01,2013-03-22 19:48:00,
2013-03-22 15:49:00,52.0,18.2,30.18,North,356,3.6,4.9,26,-99.99,,CLR,-99.99,VWS V14.01,2013-03-22 19:49:00,
2013-03-22 15:51:00,52.2,18.3,30.15,North,356,6.7,6.7,26,-99.99,,CLR,-99.99,VWS V14.01,2013-03-22 19:51:00,
2013-03-22 15:53:00,52.2,18.3,30.15,North,356,3.6,4.0,26,-99.99,,CLR,-99.99,VWS V14.01,2013-03-22 19:53:00,
2013-03-22 15:54:00,52.2,18.3,30.15,North,356,3.6,4.9,26,-99.99,,CLR,-99.99,VWS V14.01,2013-03-22 19:54:00,
2013-03-22 15:56:00,52.2,18.3,30.15,North,356,4.9,5.8,26,-99.99,,CLR,-99.99,VWS V14.01,2013-03-22 19:56:00,
2013-03-22 15:59:00,52.3,18.5,30.15,North,356,6.3,11.0,26,-99.99,,CLR,-99.99,VWS V14.01,2013-03-22 19:59:00,
2013-03-22 16:00:00,52.3,18.5,30.15,North,356,3.1,8.3,26,-99.99,,CLR,-99.99,VWS V14.01,2013-03-22 20:00:00,
2013-03-22 16:02:00,52.3,18.5,30.15,North,356,3.6,5.4,26,-99.99,,CLR,-99.99,VWS V14.01,2013-03-22 20:02:00,
2013-03-22 16:04:00,52.3,18.5,30.15,North,356,4.9,6.9,26,-99.99,,CLR,-99.99,VWS V14.01,2013-03-22 20:04:00,
2013-03-22 16:05:00,52.5,18.6,30.15,North,356,3.6,4.5,26,-99.99,,CLR,-99.99,VWS V14.01,2013-03-22 20:05:00,
2013-03-22 16:07:00,52.7,18.8,30.15,North,356,0.0,3.6,26,-99.99,,CLR,-99.99,VWS V14.01,2013-03-22 20:07:00,
2013-03-22 16:08:00,52.7,18.8,30.15,North,356,3.1,5.4,26,-99.99,,CLR,-99.99,VWS V14.01,2013-03-22 20:08:00,
2013-03-22 16:09:00,52.7,18.8,30.15,North,356,2.7,4.5,26,-99.99,,CLR,-99.99,VWS V14.01,2013-03-22 20:09:00,
2013-03-22 16:12:00,52.7,18.8,30.15,North,356,0.0,2.7,26,-99.99,,CLR,-99.99,VWS V14.01,2013-03-22 20:12:00,
2013-03-22 16:13:00,52.7,18.8,30.15,North,356,4.9,4.9,26,-99.99,,CLR,-99.99,VWS V14.01,2013-03-22 20:13:00,
2013-03-22 16:15:00,52.7,18.8,30.15,North,356,0.0,5.8,26,-99.99,,CLR,-99.99,VWS V14.01,2013-03-22 20:15:00,
2013-03-22 16:17:00,52.7,18.8,30.15,North,356,0.0,4.0,26,-99.99,,CLR,-99.99,VWS V14.01,2013-03-22 20:17:00,
2013-03-22 16:18:00,52.5,18.6,30.15,North,356,5.8,7.4,26,-99.99,,CLR,-99.99,VWS V14.01,2013-03-22 20:18:00,
2013-03-22 16:20:00,52.7,18.8,30.15,North,356,4.5,6.9,26,-99.99,,CLR,-99.99,VWS V14.01,2013-03-22 20:20:00,
2013-03-22 16:23:00,52.9,19.0,30.15,North,356,3.1,6.9,26,-99.99,,CLR,-99.99,VWS V14.01,2013-03-22 20:23:00,
2013-03-22 16:24:00,52.9,19.0,30.15,North,356,3.6,6.7,26,-99.99,,CLR,-99.99,VWS V14.01,2013-03-22 20:24:00,
2013-03-22 16:25:00,52.9,19.0,30.15,North,356,3.6,7.8,26,-99.99,,CLR,-99.99,VWS V14.01,2013-03-22 20:25:00,
2013-03-22 16:27:00,53.1,19.1,30.15,North,356,0.0,3.1,26,-99.99,,CLR,-99.99,VWS V14.01,2013-03-22 20:27:00,
2013-03-22 16:29:00,53.1,19.1,30.15,North,356,3.1,4.9,26,-99.99,,CLR,-99.99,VWS V14.01,2013-03-22 20:29:00,
2013-03-22 16:30:00,53.1,19.1,30.15,North,356,11.0,11.0,26,-99.99,,CLR,-99.99,VWS V14.01,2013-03-22 20:30:00,
2013-03-22 16:32:00,53.2,19.3,30.15,North,356,5.4,5.4,26,-99.99,,CLR,-99.99,VWS V14.01,2013-03-22 20:32:00,
2013-03-22 16:34:00,53.4,19.4,30.15,North,356,3.1,5.4,26,-99.99,,CLR,-99.99,VWS V14.01,2013-03-22 20:34:00,
2013-03-22 16:35:00,53.4,19.4,30.15,North,356,0.0,0.0,26,-99.99,,CLR,-99.99,VWS V14.01,2013-03-22 20:35:00,
2013-03-22 16:36:00,53.6,19.6,30.15,North,356,0.0,0.0,26,-99.99,,CLR,-99.99,VWS V14.01,2013-03-22 20:36:00,
2013-03-22 16:37:00,53.6,19.6,30.15,North,356,4.5,4.5,26,-99.99,,CLR,-99.99,VWS V14.01,2013-03-22 20:37:00,
2013-03-22 16:39:00,53.6,19.6,30.15,North,356,4.5,5.4,26,-99.99,,CLR,-99.99,VWS V14.01,2013-03-22 20:39:00,
2013-03-22 16:41:00,53.4,19.4,30.15,North,356,3.6,5.4,26,-99.99,,CLR,-99.99,VWS V14.01,2013-03-22 20:41:00,
2013-03-22 16:42:00,53.2,19.3,30.15,North,356,4.9,5.4,26,-99.99,,CLR,-99.99,VWS V14.01,2013-03-22 20:42:00,
2013-03-22 16:43:00,53.2,19.3,30.15,North,356,3.6,4.5,26,-99.99,,CLR,-99.99,VWS V14.01,2013-03-22 20:43:00,
2013-03-22 16:45:00,53.1,19.1,30.15,North,356,0.0,4.0,26,-99.99,,CLR,-99.99,VWS V14.01,2013-03-22 20:45:00,
2013-03-22 16:47:00,53.1,19.1,30.15,North,356,5.8,6.3,26,-99.99,,CLR,-99.99,VWS V14.01,2013-03-22 20:47:00,
2013-03-22 16:48:00,53.2,19.3,30.15,North,356,5.4,5.8,26,-99.99,,CLR,-99.99,VWS V14.01,2013-03-22 20:48:00,
2013-03-22 16:51:00,53.2,19.3,30.15,North,356,6.7,6.7,26,-99.99,,CLR,-99.99,VWS V14.01,2013-03-22 20:51:00,
2013-03-22 16:53:00,53.2,19.3,30.15,North,356,4.5,4.9,26,-99.99,,CLR,-99.99,VWS V14.01,2013-03-22 20:53:00,
2013-03-22 16:54:00,53.2,19.3,30.15,North,356,6.7,6.7,26,-99.99,,CLR,-99.99,VWS V14.01,2013-03-22 20:54:00,
2013-03-22 16:56:00,53.2,19.3,30.15,North,356,5.4,8.3,26,-99.99,,CLR,-99.99,VWS V14.01,2013-03-22 20:56:00,
2013-03-22 16:59:00,53.1,19.1,30.15,North,356,0.0,4.0,26,-99.99,,CLR,-99.99,VWS V14.01,2013-03-22 20:59:00,
2013-03-22 17:01:00,53.1,19.1,30.15,North,356,2.7,2.7,26,-99.99,,CLR,-99.99,VWS V14.01,2013-03-22 21:01:00,
2013-03-22 17:02:00,52.9,19.0,30.15,North,356,4.0,6.3,26,-99.99,,CLR,-99.99,VWS V14.01,2013-03-22 21:02:00,
2013-03-22 17:04:00,52.5,18.6,30.15,North,356,4.9,4.9,26,-99.99,,CLR,-99.99,VWS V14.01,2013-03-22 21:04:00,
2013-03-22 17:06:00,52.5,18.6,30.15,North,356,3.6,6.9,26,-99.99,,CLR,-99.99,VWS V14.01,2013-03-22 21:06:00,
2013-03-22 17:08:00,52.3,18.5,30.15,North,356,4.9,5.4,26,-99.99,,CLR,-99.99,VWS V14.01,2013-03-22 21:08:00,
2013-03-22 17:09:00,52.5,18.6,30.15,North,356,4.9,6.9,26,-99.99,,CLR,-99.99,VWS V14.01,2013-03-22 21:09:00,
2013-03-22 17:12:00,52.3,18.5,30.15,North,356,3.1,4.9,26,-99.99,,CLR,-99.99,VWS V14.01,2013-03-22 21:12:00,
2013-03-22 17:13:00,52.3,18.5,30.15,North,356,4.5,6.9,26,-99.99,,CLR,-99.99,VWS V14.01,2013-03-22 21:13:00,
2013-03-22 17:14:00,52.3,18.5,30.15,North,356,5.4,6.9,26,-99.99,,CLR,-99.99,VWS V14.01,2013-03-22 21:14:00,
2013-03-22 17:15:00,52.3,18.5,30.15,North,356,3.6,5.4,26,-99.99,,CLR,-99.99,VWS V14.01,2013-03-22 21:15:00,
2013-03-22 17:17:00,52.2,18.3,30.15,North,356,4.9,6.7,26,-99.99,,CLR,-99.99,VWS V14.01,2013-03-22 21:17:00,
2013-03-22 17:19:00,52.2,18.3,30.15,North,356,0.0,3.1,26,-99.99,,CLR,-99.99,VWS V14.01,2013-03-22 21:19:00,
2013-03-22 17:20:00,52.2,18.3,30.15,North,356,4.0,4.5,26,-99.99,,CLR,-99.99,VWS V14.01,2013-03-22 21:20:00,
2013-03-22 17:22:00,52.3,18.5,30.15,North,356,4.0,8.3,26,-99.99,,CLR,-99.99,VWS V14.01,2013-03-22 21:22:00,
2013-03-22 17:24:00,52.3,18.5,30.15,North,356,3.1,6.3,26,-99.99,,BKN110,-99.99,VWS V14.01,2013-03-22 21:24:00,
2013-03-22 17:25:00,52.3,18.5,30.15,North,356,2.7,6.3,26,-99.99,,BKN110,-99.99,VWS V14.01,2013-03-22 21:25:00,
2013-03-22 17:29:00,52.0,18.2,30.15,North,356,5.4,5.8,26,-99.99,,BKN110,-99.99,VWS V14.01,2013-03-22 21:29:00,
2013-03-22 17:30:00,52.0,18.2,30.15,North,356,3.6,5.8,26,-99.99,,BKN110,-99.99,VWS V14.01,2013-03-22 21:30:00,
2013-03-22 17:31:00,51.8,18.0,30.15,North,356,6.3,6.3,26,-99.99,,BKN110,-99.99,VWS V14.01,2013-03-22 21:31:00,
2013-03-22 17:35:00,51.6,17.9,30.15,North,356,4.5,6.3,26,-99.99,,BKN110,-99.99,VWS V14.01,2013-03-22 21:35:00,
2013-03-22 17:36:00,51.6,17.9,30.15,North,356,3.1,4.5,26,-99.99,,BKN110,-99.99,VWS V14.01,2013-03-22 21:36:00,
2013-03-22 17:37:00,51.4,17.7,30.15,North,356,4.5,8.3,26,-99.99,,BKN110,-99.99,VWS V14.01,2013-03-22 21:37:00,
2013-03-22 17:40:00,51.4,17.7,30.15,North,356,3.1,7.4,26,-99.99,,BKN110,-99.99,VWS V14.01,2013-03-22 21:40:00,
2013-03-22 17:41:00,51.4,17.7,30.15,North,356,3.1,6.9,26,-99.99,,BKN110,-99.99,VWS V14.01,2013-03-22 21:41:00,
2013-03-22 17:43:00,51.4,17.7,30.15,North,356,4.0,6.3,26,-99.99,,BKN110,-99.99,VWS V14.01,2013-03-22 21:43:00,
2013-03-22 17:44:00,51.4,17.7,30.15,North,356,4.5,4.5,26,-99.99,,BKN110,-99.99,VWS V14.01,2013-03-22 21:44:00,
2013-03-22 17:45:00,51.4,17.7,30.15,North,356,3.1,5.4,26,-99.99,,BKN110,-99.99,VWS V14.01,2013-03-22 21:45:00,
2013-03-22 17:47:00,51.4,17.7,30.15,North,356,3.1,3.1,26,-99.99,,BKN110,-99.99,VWS V14.01,2013-03-22 21:47:00,
2013-03-22 17:48:00,51.4,17.7,30.15,North,356,3.6,4.5,26,-99.99,,BKN110,-99.99,VWS V14.01,2013-03-22 21:48:00,
2013-03-22 17:49:00,51.4,17.7,30.15,North,356,3.6,4.9,26,-99.99,,BKN110,-99.99,VWS V14.01,2013-03-22 21:49:00,
2013-03-22 17:50:00,51.4,17.7,30.15,North,356,4.0,4.0,26,-99.99,,BKN110,-99.99,VWS V14.01,2013-03-22 21:50:00,
2013-03-22 17:52:00,51.3,17.6,30.15,North,356,4.5,4.5,26,-99.99,,BKN110,-99.99,VWS V14.01,2013-03-22 21:52:00,
2013-03-22 17:53:00,51.3,17.6,30.15,North,356,2.7,4.5,26,-99.99,,BKN110,-99.99,VWS V14.01,2013-03-22 21:53:00,
2013-03-22 17:54:00,51.3,17.6,30.15,North,356,3.1,4.5,26,-99.99,,BKN110,-99.99,VWS V14.01,2013-03-22 21:54:00,
2013-03-22 17:58:00,50.9,17.2,30.15,North,356,4.0,4.9,26,-99.99,,BKN110,-99.99,VWS V14.01,2013-03-22 21:58:00,
2013-03-22 17:59:00,50.7,18.0,30.15,North,356,3.1,5.8,27,-99.99,,BKN110,-99.99,VWS V14.01,2013-03-22 21:59:00,
2013-03-22 18:03:00,50.5,17.8,30.15,North,356,0.0,5.8,27,-99.99,,BKN110,-99.99,VWS V14.01,2013-03-22 22:03:00,
2013-03-22 18:04:00,50.5,17.8,30.15,North,356,2.7,4.9,27,-99.99,,BKN110,-99.99,VWS V14.01,2013-03-22 22:04:00,
2013-03-22 18:05:00,50.5,17.8,30.15,North,356,4.5,4.5,27,-99.99,,BKN110,-99.99,VWS V14.01,2013-03-22 22:05:00,
2013-03-22 18:08:00,50.5,17.8,30.15,North,356,0.0,6.9,27,-99.99,,BKN110,-99.99,VWS V14.01,2013-03-22 22:08:00,
2013-03-22 18:09:00,50.5,17.8,30.15,North,356,3.6,4.0,27,-99.99,,BKN110,-99.99,VWS V14.01,2013-03-22 22:09:00,
2013-03-22 18:12:00,50.5,17.8,30.15,North,356,5.4,5.8,27,-99.99,,BKN110,-99.99,VWS V14.01,2013-03-22 22:12:00,
2013-03-22 18:14:00,50.5,17.8,30.15,North,356,0.0,3.6,27,-99.99,,BKN110,-99.99,VWS V14.01,2013-03-22 22:14:00,
2013-03-22 18:18:00,50.2,17.5,30.15,North,356,0.0,0.0,27,-99.99,,BKN110,-99.99,VWS V14.01,2013-03-22 22:18:00,
2013-03-22 18:19:00,50.2,17.5,30.15,North,356,0.0,0.0,27,-99.99,,BKN110,-99.99,VWS V14.01,2013-03-22 22:19:00,
2013-03-22 18:20:00,50.2,17.5,30.15,North,356,3.1,6.3,27,-99.99,,BKN110,-99.99,VWS V14.01,2013-03-22 22:20:00,
2013-03-22 18:24:00,50.0,17.4,30.15,North,356,3.1,3.6,27,-99.99,,OVC110,-99.99,VWS V14.01,2013-03-22 22:24:00,
2013-03-22 18:26:00,49.6,17.0,30.15,North,356,0.0,0.0,27,-99.99,,OVC110,-99.99,VWS V14.01,2013-03-22 22:26:00,
2013-03-22 18:29:00,49.5,16.9,30.15,North,356,0.0,0.0,27,-99.99,,OVC110,-99.99,VWS V14.01,2013-03-22 22:29:00,
2013-03-22 18:30:00,49.5,16.9,30.15,North,356,3.6,3.6,27,-99.99,,OVC110,-99.99,VWS V14.01,2013-03-22 22:30:00,
2013-03-22 18:33:00,48.9,16.4,30.15,North,356,0.0,0.0,27,-99.99,,OVC110,-99.99,VWS V14.01,2013-03-22 22:33:00,
2013-03-22 18:34:00,48.9,16.4,30.15,North,356,0.0,0.0,27,-99.99,,OVC110,-99.99,VWS V14.01,2013-03-22 22:34:00,
2013-03-22 18:35:00,48.7,16.3,30.15,North,356,0.0,0.0,27,-99.99,,OVC110,-99.99,VWS V14.01,2013-03-22 22:35:00,
2013-03-22 18:39:00,48.6,16.1,30.15,North,356,2.7,2.7,27,-99.99,,OVC110,-99.99,VWS V14.01,2013-03-22 22:39:00,
2013-03-22 18:40:00,48.6,16.1,30.15,North,356,2.7,4.0,27,-99.99,,OVC110,-99.99,VWS V14.01,2013-03-22 22:40:00,
2013-03-22 18:45:00,48.0,15.6,30.15,North,356,0.0,4.0,27,-99.99,,OVC110,-99.99,VWS V14.01,2013-03-22 22:45:00,
2013-03-22 18:46:00,48.0,15.6,30.15,North,356,0.0,0.0,27,-99.99,,OVC110,-99.99,VWS V14.01,2013-03-22 22:46:00,
2013-03-22 18:47:00,47.8,15.5,30.15,North,356,2.7,6.3,27,-99.99,,OVC110,-99.99,VWS V14.01,2013-03-22 22:47:00,
2013-03-22 18:50:00,47.8,15.5,30.15,North,356,2.7,5.4,27,-99.99,,OVC110,-99.99,VWS V14.01,2013-03-22 22:50:00,
2013-03-22 18:51:00,47.7,15.3,30.15,North,356,0.0,0.0,27,-99.99,,OVC110,-99.99,VWS V14.01,2013-03-22 22:51:00,
2013-03-22 18:53:00,47.7,15.3,30.15,North,356,0.0,5.4,27,-99.99,,OVC110,-99.99,VWS V14.01,2013-03-22 22:53:00,
2013-03-22 18:55:00,47.5,15.2,30.15,North,356,0.0,3.6,27,-99.99,,OVC110,-99.99,VWS V14.01,2013-03-22 22:55:00,
2013-03-22 18:56:00,47.3,15.0,30.15,North,356,0.0,0.0,27,-99.99,,OVC110,-99.99,VWS V14.01,2013-03-22 22:56:00,
2013-03-22 18:58:00,47.3,15.0,30.15,North,356,4.9,5.8,27,-99.99,,OVC110,-99.99,VWS V14.01,2013-03-22 22:58:00,
2013-03-22 19:00:00,47.3,15.0,30.15,North,356,3.6,6.9,27,-99.99,,CLR,-99.99,VWS V14.01,2013-03-22 23:00:00,
2013-03-22 19:01:00,47.1,14.9,30.15,North,356,3.1,3.1,27,-99.99,,CLR,-99.99,VWS V14.01,2013-03-22 23:01:00,
2013-03-22 19:03:00,47.1,14.9,30.15,North,356,2.7,2.7,27,-99.99,,CLR,-99.99,VWS V14.01,2013-03-22 23:03:00,
2013-03-22 19:04:00,47.1,14.9,30.15,North,356,0.0,3.6,27,-99.99,,CLR,-99.99,VWS V14.01,2013-03-22 23:04:00,
2013-03-22 19:05:00,47.1,14.9,30.15,North,356,4.0,6.9,27,-99.99,,CLR,-99.99,VWS V14.01,2013-03-22 23:05:00,
2013-03-22 19:07:00,46.9,14.7,30.15,North,356,4.9,6.7,27,-99.99,,CLR,-99.99,VWS V14.01,2013-03-22 23:07:00,
2013-03-22 19:09:00,46.9,14.7,30.15,North,356,0.0,0.0,27,-99.99,,CLR,-99.99,VWS V14.01,2013-03-22 23:09:00,
2013-03-22 19:10:00,46.8,14.6,30.15,North,356,0.0,5.4,27,-99.99,,CLR,-99.99,VWS V14.01,2013-03-22 23:10:00,
2013-03-22 19:12:00,46.8,14.6,30.15,North,356,0.0,2.7,27,-99.99,,CLR,-99.99,VWS V14.01,2013-03-22 23:12:00,
2013-03-22 19:15:00,46.4,14.2,30.15,North,356,2.7,2.7,27,-99.99,,CLR,-99.99,VWS V14.01,2013-03-22 23:15:00,
2013-03-22 19:16:00,46.4,14.2,30.15,North,356,0.0,0.0,27,-99.99,,CLR,-99.99,VWS V14.01,2013-03-22 23:16:00,
2013-03-22 19:17:00,46.2,14.1,30.15,North,356,0.0,0.0,27,-99.99,,CLR,-99.99,VWS V14.01,2013-03-22 23:17:00,
2013-03-22 19:20:00,46.0,13.9,30.15,North,356,0.0,0.0,27,-99.99,,CLR,-99.99,VWS V14.01,2013-03-22 23:20:00,
2013-03-22 19:22:00,45.9,13.8,30.18,North,356,0.0,0.0,27,-99.99,,CLR,-99.99,VWS V14.01,2013-03-22 23:22:00,
2013-03-22 19:25:00,45.3,14.1,30.18,North,356,0.0,0.0,28,-99.99,,CLR,-99.99,VWS V14.01,2013-03-22 23:25:00,
2013-03-22 19:27:00,45.1,14.0,30.18,North,356,0.0,0.0,28,-99.99,,CLR,-99.99,VWS V14.01,2013-03-22 23:27:00,
2013-03-22 19:28:00,45.0,13.8,30.18,North,356,0.0,0.0,28,-99.99,,CLR,-99.99,VWS V14.01,2013-03-22 23:28:00,
2013-03-22 19:30:00,44.8,13.7,30.18,North,356,0.0,0.0,28,-99.99,,CLR,-99.99,VWS V14.01,2013-03-22 23:30:00,
2013-03-22 19:33:00,44.6,13.5,30.18,North,356,0.0,0.0,28,-99.99,,CLR,-99.99,VWS V14.01,2013-03-22 23:33:00,
2013-03-22 19:34:00,44.4,13.4,30.18,North,356,0.0,0.0,28,-99.99,,CLR,-99.99,VWS V14.01,2013-03-22 23:34:00,
2013-03-22 19:35:00,44.2,13.2,30.18,North,356,0.0,0.0,28,-99.99,,CLR,-99.99,VWS V14.01,2013-03-22 23:35:00,
2013-03-22 19:39:00,43.7,12.8,30.18,North,356,0.0,0.0,28,-99.99,,CLR,-99.99,VWS V14.01,2013-03-22 23:39:00,
2013-03-22 19:40:00,43.7,13.5,30.18,North,356,0.0,0.0,29,-99.99,,CLR,-99.99,VWS V14.01,2013-03-22 23:40:00,
2013-03-22 19:42:00,43.5,13.4,30.18,North,356,0.0,0.0,29,-99.99,,CLR,-99.99,VWS V14.01,2013-03-22 23:42:00,
2013-03-22 19:45:00,43.2,13.1,30.18,North,356,0.0,0.0,29,-99.99,,CLR,-99.99,VWS V14.01,2013-03-22 23:45:00,
2013-03-22 19:46:00,43.2,13.1,30.18,North,356,0.0,0.0,29,-99.99,,CLR,-99.99,VWS V14.01,2013-03-22 23:46:00,
2013-03-22 19:48:00,43.0,12.9,30.18,North,356,0.0,0.0,29,-99.99,,CLR,-99.99,VWS V14.01,2013-03-22 23:48:00,
2013-03-22 19:51:00,42.6,12.6,30.18,North,356,0.0,0.0,29,-99.99,,CLR,-99.99,VWS V14.01,2013-03-22 23:51:00,
2013-03-22 19:52:00,42.4,12.4,30.18,North,356,0.0,0.0,29,-99.99,,CLR,-99.99,VWS V14.01,2013-03-22 23:52:00,
2013-03-22 19:53:00,42.4,12.4,30.18,North,356,0.0,0.0,29,-99.99,,CLR,-99.99,VWS V14.01,2013-03-22 23:53:00,
2013-03-22 19:55:00,42.3,12.3,30.18,North,356,0.0,0.0,29,-99.99,,CLR,-99.99,VWS V14.01,2013-03-22 23:55:00,
2013-03-22 19:56:00,42.3,12.3,30.18,North,356,0.0,0.0,29,-99.99,,CLR,-99.99,VWS V14.01,2013-03-22 23:56:00,
2013-03-22 19:58:00,42.1,12.1,30.18,North,356,0.0,0.0,29,-99.99,,CLR,-99.99,VWS V14.01,2013-03-22 23:58:00,
2013-03-22 20:01:00,41.7,11.8,30.18,North,356,0.0,0.0,29,-99.99,,CLR,-99.99,VWS V14.01,2013-03-23 00:01:00,
2013-03-22 20:03:00,41.5,11.7,30.18,North,356,0.0,0.0,29,-99.99,,CLR,-99.99,VWS V14.01,2013-03-23 00:03:00,
2013-03-22 20:04:00,41.5,11.7,30.18,North,356,0.0,0.0,29,-99.99,,CLR,-99.99,VWS V14.01,2013-03-23 00:04:00,
2013-03-22 20:06:00,41.2,11.4,30.18,North,356,0.0,0.0,29,-99.99,,CLR,-99.99,VWS V14.01,2013-03-23 00:06:00,
2013-03-22 20:07:00,41.2,11.4,30.18,North,356,0.0,0.0,29,-99.99,,CLR,-99.99,VWS V14.01,2013-03-23 00:07:00,
2013-03-22 20:09:00,41.0,11.2,30.18,North,356,0.0,0.0,29,-99.99,,CLR,-99.99,VWS V14.01,2013-03-23 00:09:00,
2013-03-22 20:10:00,41.0,12.0,30.18,North,356,0.0,0.0,30,-99.99,,CLR,-99.99,VWS V14.01,2013-03-23 00:10:00,
2013-03-22 20:12:00,40.8,11.8,30.18,North,356,0.0,0.0,30,-99.99,,CLR,-99.99,VWS V14.01,2013-03-23 00:12:00,
2013-03-22 20:14:00,40.6,11.6,30.18,North,356,0.0,0.0,30,-99.99,,CLR,-99.99,VWS V14.01,2013-03-23 00:14:00,
2013-03-22 20:15:00,40.6,11.6,30.18,North,356,0.0,0.0,30,-99.99,,CLR,-99.99,VWS V14.01,2013-03-23 00:15:00,
2013-03-22 20:18:00,40.5,11.5,30.18,North,356,0.0,0.0,30,-99.99,,CLR,-99.99,VWS V14.01,2013-03-23 00:18:00,
2013-03-22 20:19:00,40.3,11.3,30.18,North,356,0.0,0.0,30,-99.99,,CLR,-99.99,VWS V14.01,2013-03-23 00:19:00,
2013-03-22 20:20:00,40.3,11.3,30.18,North,356,0.0,0.0,30,-99.99,,CLR,-99.99,VWS V14.01,2013-03-23 00:20:00,
2013-03-22 20:23:00,39.9,11.8,30.18,North,356,0.0,0.0,31,-99.99,,CLR,-99.99,VWS V14.01,2013-03-23 00:23:00,
2013-03-22 20:24:00,39.7,11.6,30.18,North,356,0.0,0.0,31,-99.99,,CLR,-99.99,VWS V14.01,2013-03-23 00:24:00,
2013-03-22 20:26:00,39.7,11.6,30.18,North,356,0.0,0.0,31,-99.99,,CLR,-99.99,VWS V14.01,2013-03-23 00:26:00,
2013-03-22 20:27:00,39.6,11.4,30.18,North,356,0.0,0.0,31,-99.99,,CLR,-99.99,VWS V14.01,2013-03-23 00:27:00,
2013-03-22 20:29:00,39.4,11.3,30.18,North,356,0.0,0.0,31,-99.99,,CLR,-99.99,VWS V14.01,2013-03-23 00:29:00,
2013-03-22 20:30:00,39.4,11.3,30.18,North,356,0.0,0.0,31,-99.99,,CLR,-99.99,VWS V14.01,2013-03-23 00:30:00,
2013-03-22 20:34:00,39.0,11.7,30.18,North,356,0.0,0.0,32,-99.99,,CLR,-99.99,VWS V14.01,2013-03-23 00:34:00,
2013-03-22 20:35:00,39.0,11.7,30.18,North,356,0.0,0.0,32,-99.99,,CLR,-99.99,VWS V14.01,2013-03-23 00:35:00,
2013-03-22 20:39:00,38.8,12.2,30.18,North,356,0.0,0.0,33,-99.99,,CLR,-99.99,VWS V14.01,2013-03-23 00:39:00,
2013-03-22 20:41:00,38.8,12.2,30.18,North,356,0.0,0.0,33,-99.99,,CLR,-99.99,VWS V14.01,2013-03-23 00:41:00,
2013-03-22 20:42:00,38.8,12.2,30.18,North,356,0.0,0.0,33,-99.99,,CLR,-99.99,VWS V14.01,2013-03-23 00:42:00,
2013-03-22 20:44:00,38.8,12.2,30.18,North,356,0.0,0.0,33,-99.99,,CLR,-99.99,VWS V14.01,2013-03-23 00:44:00,
2013-03-22 20:46:00,38.8,12.9,30.18,North,356,0.0,0.0,34,-99.99,,CLR,-99.99,VWS V14.01,2013-03-23 00:46:00,
2013-03-22 20:49:00,38.7,12.7,30.18,North,356,0.0,0.0,34,-99.99,,CLR,-99.99,VWS V14.01,2013-03-23 00:49:00,
2013-03-22 20:50:00,38.7,12.7,30.18,North,356,0.0,0.0,34,-99.99,,CLR,-99.99,VWS V14.01,2013-03-23 00:50:00,
2013-03-22 20:52:00,38.7,12.7,30.18,North,356,0.0,0.0,34,-99.99,,CLR,-99.99,VWS V14.01,2013-03-23 00:52:00,
2013-03-22 20:54:00,38.7,13.4,30.18,North,356,0.0,0.0,35,-99.99,,CLR,-99.99,VWS V14.01,2013-03-23 00:54:00,
2013-03-22 20:56:00,38.7,13.4,30.18,North,356,0.0,0.0,35,-99.99,,CLR,-99.99,VWS V14.01,2013-03-23 00:56:00,
2013-03-22 20:57:00,38.7,13.4,30.18,North,356,0.0,0.0,35,-99.99,,CLR,-99.99,VWS V14.01,2013-03-23 00:57:00,
2013-03-22 21:00:00,38.8,14.2,30.18,North,356,0.0,0.0,36,-99.99,,CLR,-99.99,VWS V14.01,2013-03-23 01:00:00,
2013-03-22 21:01:00,38.8,14.2,30.18,North,356,0.0,0.0,36,-99.99,,CLR,-99.99,VWS V14.01,2013-03-23 01:01:00,
2013-03-22 21:02:00,39.0,15.0,30.18,North,356,0.0,0.0,37,-99.99,,CLR,-99.99,VWS V14.01,2013-03-23 01:02:00,
2013-03-22 21:06:00,39.2,15.1,30.18,North,356,0.0,0.0,37,-99.99,,CLR,-99.99,VWS V14.01,2013-03-23 01:06:00,
2013-03-22 21:07:00,39.2,15.1,30.18,North,356,0.0,0.0,37,-99.99,,CLR,-99.99,VWS V14.01,2013-03-23 01:07:00,
2013-03-22 21:08:00,39.4,15.3,30.18,North,356,0.0,0.0,37,-99.99,,CLR,-99.99,VWS V14.01,2013-03-23 01:08:00,
2013-03-22 21:11:00,39.6,16.1,30.18,North,356,0.0,0.0,38,-99.99,,CLR,-99.99,VWS V14.01,2013-03-23 01:11:00,
2013-03-22 21:12:00,39.6,16.1,30.18,North,356,0.0,0.0,38,-99.99,,CLR,-99.99,VWS V14.01,2013-03-23 01:12:00,
2013-03-22 21:13:00,39.6,16.1,30.18,North,356,0.0,0.0,38,-99.99,,CLR,-99.99,VWS V14.01,2013-03-23 01:13:00,
2013-03-22 21:17:00,39.7,16.2,30.18,North,356,0.0,0.0,38,-99.99,,CLR,-99.99,VWS V14.01,2013-03-23 01:17:00,
2013-03-22 21:18:00,39.7,16.2,30.18,North,356,0.0,0.0,38,-99.99,,CLR,-99.99,VWS V14.01,2013-03-23 01:18:00,
2013-03-22 21:23:00,39.7,16.2,30.21,North,356,0.0,0.0,38,-99.99,,CLR,-99.99,VWS V14.01,2013-03-23 01:23:00,
2013-03-22 21:26:00,39.6,16.1,30.21,North,356,0.0,0.0,38,-99.99,,CLR,-99.99,VWS V14.01,2013-03-23 01:26:00,
2013-03-22 21:28:00,39.4,15.9,30.21,North,356,0.0,0.0,38,-99.99,,CLR,-99.99,VWS V14.01,2013-03-23 01:28:00,
2013-03-22 21:29:00,39.4,16.5,30.21,North,356,0.0,0.0,39,-99.99,,CLR,-99.99,VWS V14.01,2013-03-23 01:29:00,
2013-03-22 21:33:00,39.4,16.5,30.21,North,356,0.0,0.0,39,-99.99,,CLR,-99.99,VWS V14.01,2013-03-23 01:33:00,
2013-03-22 21:34:00,39.4,16.5,30.21,North,356,0.0,0.0,39,-99.99,,CLR,-99.99,VWS V14.01,2013-03-23 01:34:00,
2013-03-22 21:35:00,39.4,16.5,30.21,North,356,0.0,0.0,39,-99.99,,CLR,-99.99,VWS V14.01,2013-03-23 01:35:00,
2013-03-22 21:36:00,39.2,16.3,30.21,North,356,0.0,0.0,39,-99.99,,CLR,-99.99,VWS V14.01,2013-03-23 01:36:00,
2013-03-22 21:39:00,39.0,16.2,30.21,North,356,0.0,0.0,39,-99.99,,CLR,-99.99,VWS V14.01,2013-03-23 01:39:00,
2013-03-22 21:40:00,38.8,16.0,30.21,North,356,0.0,0.0,39,-99.99,,CLR,-99.99,VWS V14.01,2013-03-23 01:40:00,
2013-03-22 21:41:00,38.8,16.0,30.21,North,356,0.0,0.0,39,-99.99,,CLR,-99.99,VWS V14.01,2013-03-23 01:41:00,
2013-03-22 21:44:00,38.7,15.9,30.21,North,356,0.0,0.0,39,-99.99,,CLR,-99.99,VWS V14.01,2013-03-23 01:44:00,
2013-03-22 21:45:00,38.5,15.7,30.21,North,356,0.0,0.0,39,-99.99,,CLR,-99.99,VWS V14.01,2013-03-23 01:45:00,
2013-03-22 21:46:00,38.5,15.7,30.21,North,356,0.0,0.0,39,-99.99,,CLR,-99.99,VWS V14.01,2013-03-23 01:46:00,
2013-03-22 21:47:00,38.3,15.5,30.21,North,356,0.0,0.0,39,-99.99,,CLR,-99.99,VWS V14.01,2013-03-23 01:47:00,
2013-03-22 21:50:00,38.1,15.4,30.21,North,356,0.0,0.0,39,-99.99,,CLR,-99.99,VWS V14.01,2013-03-23 01:50:00,
2013-03-22 21:51:00,37.9,15.2,30.21,North,356,0.0,0.0,39,-99.99,,CLR,-99.99,VWS V14.01,2013-03-23 01:51:00,
2013-03-22 21:52:00,37.8,15.0,30.21,North,356,0.0,0.0,39,-99.99,,CLR,-99.99,VWS V14.01,2013-03-23 01:52:00,
2013-03-22 21:55:00,37.6,15.5,30.21,North,356,0.0,0.0,40,-99.99,,CLR,-99.99,VWS V14.01,2013-03-23 01:55:00,
2013-03-22 21:56:00,37.6,15.5,30.21,North,356,0.0,0.0,40,-99.99,,CLR,-99.99,VWS V14.01,2013-03-23 01:56:00,
2013-03-22 21:58:00,37.4,15.3,30.21,North,356,0.0,0.0,40,-99.99,,CLR,-99.99,VWS V14.01,2013-03-23 01:58:00,
2013-03-22 21:59:00,37.4,15.3,30.21,North,356,0.0,0.0,40,-99.99,,CLR,-99.99,VWS V14.01,2013-03-23 01:59:00,
2013-03-22 22:01:00,37.2,15.1,30.21,North,356,0.0,0.0,40,-99.99,,CLR,-99.99,VWS V14.01,2013-03-23 02:01:00,
2013-03-22 22:02:00,37.2,15.1,30.21,North,356,0.0,0.0,40,-99.99,,CLR,-99.99,VWS V14.01,2013-03-23 02:02:00,
2013-03-22 22:03:00,37.0,15.0,30.21,North,356,0.0,0.0,40,-99.99,,CLR,-99.99,VWS V14.01,2013-03-23 02:03:00,
2013-03-22 22:06:00,37.0,15.0,30.21,North,356,0.0,0.0,40,-99.99,,CLR,-99.99,VWS V14.01,2013-03-23 02:06:00,
2013-03-22 22:07:00,36.9,14.8,30.21,North,356,0.0,0.0,40,-99.99,,CLR,-99.99,VWS V14.01,2013-03-23 02:07:00,
2013-03-22 22:09:00,36.9,14.8,30.21,North,356,0.0,0.0,40,-99.99,,CLR,-99.99,VWS V14.01,2013-03-23 02:09:00,
2013-03-22 22:12:00,36.7,14.6,30.21,North,356,0.0,0.0,40,-99.99,,CLR,-99.99,VWS V14.01,2013-03-23 02:12:00,
2013-03-22 22:13:00,36.7,14.6,30.21,North,356,0.0,0.0,40,-99.99,,CLR,-99.99,VWS V14.01,2013-03-23 02:13:00,
2013-03-22 22:16:00,36.5,14.5,30.21,North,356,0.0,0.0,40,-99.99,,CLR,-99.99,VWS V14.01,2013-03-23 02:16:00,
2013-03-22 22:17:00,36.5,14.5,30.21,North,356,0.0,0.0,40,-99.99,,CLR,-99.99,VWS V14.01,2013-03-23 02:17:00,
2013-03-22 22:18:00,36.3,14.3,30.21,North,356,0.0,0.0,40,-99.99,,CLR,-99.99,VWS V14.01,2013-03-23 02:18:00,
2013-03-22 22:22:00,36.3,14.3,30.21,North,356,0.0,0.0,40,-99.99,,CLR,-99.99,VWS V14.01,2013-03-23 02:22:00,
2013-03-22 22:23:00,36.3,14.3,30.21,North,356,0.0,0.0,40,-99.99,,CLR,-99.99,VWS V14.01,2013-03-23 02:23:00,
2013-03-22 22:26:00,36.1,14.2,30.21,North,356,0.0,0.0,40,-99.99,,CLR,-99.99,VWS V14.01,2013-03-23 02:26:00,
2013-03-22 22:27:00,36.1,14.2,30.21,North,356,0.0,0.0,40,-99.99,,CLR,-99.99,VWS V14.01,2013-03-23 02:27:00,
2013-03-22 22:28:00,36.1,14.2,30.21,North,356,0.0,0.0,40,-99.99,,CLR,-99.99,VWS V14.01,2013-03-23 02:28:00,
2013-03-22 22:29:00,36.1,14.2,30.21,North,356,0.0,0.0,40,-99.99,,CLR,-99.99,VWS V14.01,2013-03-23 02:29:00,
2013-03-22 22:31:00,36.3,14.3,30.21,North,356,0.0,0.0,40,-99.99,,CLR,-99.99,VWS V14.01,2013-03-23 02:31:00,
2013-03-22 22:32:00,36.3,14.3,30.21,North,356,0.0,0.0,40,-99.99,,CLR,-99.99,VWS V14.01,2013-03-23 02:32:00,
2013-03-22 22:34:00,36.3,14.3,30.21,North,356,0.0,0.0,40,-99.99,,CLR,-99.99,VWS V14.01,2013-03-23 02:34:00,
2013-03-22 22:36:00,36.3,14.3,30.21,North,356,0.0,0.0,40,-99.99,,CLR,-99.99,VWS V14.01,2013-03-23 02:36:00,
2013-03-22 22:39:00,36.3,14.3,30.21,North,356,0.0,0.0,40,-99.99,,CLR,-99.99,VWS V14.01,2013-03-23 02:39:00,
2013-03-22 22:41:00,36.5,15.1,30.21,North,356,0.0,0.0,41,-99.99,,CLR,-99.99,VWS V14.01,2013-03-23 02:41:00,
2013-03-22 22:42:00,36.5,15.1,30.21,North,356,0.0,0.0,41,-99.99,,CLR,-99.99,VWS V14.01,2013-03-23 02:42:00,
2013-03-22 22:44:00,36.5,14.5,30.21,North,356,0.0,0.0,40,-99.99,,CLR,-99.99,VWS V14.01,2013-03-23 02:44:00,
2013-03-22 22:47:00,36.5,15.1,30.21,North,356,0.0,0.0,41,-99.99,,CLR,-99.99,VWS V14.01,2013-03-23 02:47:00,
2013-03-22 22:49:00,36.7,15.2,30.21,North,356,0.0,0.0,41,-99.99,,CLR,-99.99,VWS V14.01,2013-03-23 02:49:00,
2013-03-22 22:53:00,36.9,15.4,30.21,North,356,0.0,0.0,41,-99.99,,CLR,-99.99,VWS V14.01,2013-03-23 02:53:00,
2013-03-22 22:55:00,36.9,15.4,30.21,North,356,0.0,0.0,41,-99.99,,CLR,-99.99,VWS V14.01,2013-03-23 02:55:00,
2013-03-22 22:58:00,37.0,16.1,30.21,North,356,0.0,0.0,42,-99.99,,OVC100,-99.99,VWS V14.01,2013-03-23 02:58:00,
2013-03-22 23:00:00,37.2,16.3,30.21,North,356,0.0,0.0,42,-99.99,,OVC100,-99.99,VWS V14.01,2013-03-23 03:00:00,
2013-03-22 23:01:00,37.4,16.4,30.21,North,356,0.0,0.0,42,-99.99,,OVC100,-99.99,VWS V14.01,2013-03-23 03:01:00,
2013-03-22 23:04:00,37.6,16.6,30.21,North,356,0.0,0.0,42,-99.99,,OVC100,-99.99,VWS V14.01,2013-03-23 03:04:00,
2013-03-22 23:05:00,37.6,16.6,30.21,North,356,0.0,0.0,42,-99.99,,OVC100,-99.99,VWS V14.01,2013-03-23 03:05:00,
2013-03-22 23:07:00,37.6,16.6,30.21,North,356,0.0,0.0,42,-99.99,,OVC100,-99.99,VWS V14.01,2013-03-23 03:07:00,
2013-03-22 23:09:00,37.8,16.8,30.21,North,356,0.0,0.0,42,-99.99,,OVC100,-99.99,VWS V14.01,2013-03-23 03:09:00,
2013-03-22 23:10:00,37.8,16.8,30.21,North,356,0.0,0.0,42,-99.99,,OVC100,-99.99,VWS V14.01,2013-03-23 03:10:00,
2013-03-22 23:14:00,37.9,16.9,30.21,North,356,0.0,0.0,42,-99.99,,OVC100,-99.99,VWS V14.01,2013-03-23 03:14:00,
2013-03-22 23:15:00,37.9,16.9,30.21,North,356,0.0,0.0,42,-99.99,,OVC100,-99.99,VWS V14.01,2013-03-23 03:15:00,
2013-03-22 23:16:00,38.1,17.1,30.21,North,356,0.0,0.0,42,-99.99,,OVC100,-99.99,VWS V14.01,2013-03-23 03:16:00,
2013-03-22 23:20:00,38.3,17.2,30.21,North,356,0.0,0.0,42,-99.99,,OVC100,-99.99,VWS V14.01,2013-03-23 03:20:00,
2013-03-22 23:21:00,38.5,17.4,30.21,North,356,0.0,0.0,42,-99.99,,OVC100,-99.99,VWS V14.01,2013-03-23 03:21:00,
2013-03-22 23:26:00,38.8,17.2,30.21,North,356,0.0,0.0,41,-99.99,,OVC100,-99.99,VWS V14.01,2013-03-23 03:26:00,
2013-03-22 23:27:00,38.8,17.2,30.21,North,356,0.0,0.0,41,-99.99,,OVC100,-99.99,VWS V14.01,2013-03-23 03:27:00,
2013-03-22 23:31:00,39.4,17.7,30.21,North,356,0.0,0.0,41,-99.99,,OVC100,-99.99,VWS V14.01,2013-03-23 03:31:00,
2013-03-22 23:32:00,39.4,17.7,30.21,North,356,0.0,0.0,41,-99.99,,OVC100,-99.99,VWS V14.01,2013-03-23 03:32:00,
2013-03-22 23:37:00,39.9,18.1,30.21,North,356,0.0,0.0,41,-99.99,,OVC100,-99.99,VWS V14.01,2013-03-23 03:37:00,
2013-03-22 23:39:00,39.9,18.1,30.21,North,356,0.0,0.0,41,-99.99,,OVC100,-99.99,VWS V14.01,2013-03-23 03:39:00,
2013-03-22 23:42:00,40.1,17.7,30.21,North,356,0.0,0.0,40,-99.99,,OVC100,-99.99,VWS V14.01,2013-03-23 03:42:00,
2013-03-22 23:43:00,40.3,17.9,30.21,North,356,0.0,0.0,40,-99.99,,OVC100,-99.99,VWS V14.01,2013-03-23 03:43:00,
2013-03-22 23:45:00,40.3,17.9,30.21,North,356,0.0,0.0,40,-99.99,,OVC100,-99.99,VWS V14.01,2013-03-23 03:45:00,
2013-03-22 23:48:00,40.5,18.1,30.21,North,356,0.0,0.0,40,-99.99,,OVC100,-99.99,VWS V14.01,2013-03-23 03:48:00,
2013-03-22 23:49:00,40.5,18.1,30.21,North,356,0.0,0.0,40,-99.99,,OVC100,-99.99,VWS V14.01,2013-03-23 03:49:00,
2013-03-22 23:50:00,40.5,18.1,30.21,North,356,0.0,0.0,40,-99.99,,OVC100,-99.99,VWS V14.01,2013-03-23 03:50:00,
2013-03-22 23:53:00,40.6,17.6,30.21,North,356,3.1,3.6,39,-99.99,,OVC100,-99.99,VWS V14.01,2013-03-23 03:53:00,
2013-03-22 23:54:00,40.6,17.6,30.21,North,356,0.0,3.6,39,-99.99,,OVC100,-99.99,VWS V14.01,2013-03-23 03:54:00,
2013-03-22 23:57:00,40.8,17.8,30.21,North,356,0.0,0.0,39,-99.99,,OVC100,-99.99,VWS V14.01,2013-03-23 03:57:00,
2013-03-22 23:58:00,40.8,17.8,30.21,North,356,0.0,0.0,39,-99.99,,OVC100,-99.99,VWS V14.01,2013-03-23 03:58:00,